<?xml version="1.0" encoding="UTF-8"?>
<gpx version="1.1" creator="2bulu-scraper" xmlns="http://www.topografix.com/GPX/1/1">
  <metadata><name>犍为水星古寨</name><desc>source: 2bulu.com trackId=82052013; exported 2026-09-01T17:22:55.319Z</desc>
    <bounds minlat="29.243307" minlon="103.766836" maxlat="29.25358" maxlon="103.788325"/>
    <link href="https://www.2bulu.com/track/t-HTIRzUHdIK%252Fp%252FR2KBg5Tzw%253D%253D.htm"><text>2bulu 源页面</text></link>
  </metadata>
  <wpt lat="29.251931" lon="103.783995"><ele>542</ele><name></name></wpt>
  <wpt lat="29.252172" lon="103.783785"><ele>533</ele><name></name></wpt>
  <wpt lat="29.252783" lon="103.780526"><ele>492</ele><name></name></wpt>
  <wpt lat="29.252692" lon="103.779499"><ele>458</ele><name></name></wpt>
  <wpt lat="29.252611" lon="103.779498"><ele>463</ele><name></name></wpt>
  <wpt lat="29.252539" lon="103.779186"><ele>445</ele><name></name></wpt>
  <wpt lat="29.252523" lon="103.779009"><ele>444</ele><name></name></wpt>
  <wpt lat="29.252514" lon="103.778817"><ele>445</ele><name></name></wpt>
  <wpt lat="29.25258" lon="103.7787"><ele>445</ele><name></name></wpt>
  <wpt lat="29.252534" lon="103.778507"><ele>445</ele><name></name></wpt>
  <wpt lat="29.252135" lon="103.777629"><ele>477</ele><name></name></wpt>
  <wpt lat="29.251955" lon="103.776728"><ele>522</ele><name></name></wpt>
  <wpt lat="29.251968" lon="103.776343"><ele>538</ele><name></name></wpt>
  <wpt lat="29.252218" lon="103.775773"><ele>562</ele><name></name></wpt>
  <wpt lat="29.253424" lon="103.771594"><ele>586</ele><name></name></wpt>
  <wpt lat="29.249236" lon="103.770593"><ele>623</ele><name></name></wpt>
  <wpt lat="29.249274" lon="103.77039"><ele>628</ele><name></name></wpt>
  <wpt lat="29.24928" lon="103.770141"><ele>628</ele><name></name></wpt>
  <wpt lat="29.248837" lon="103.76973"><ele>628</ele><name></name></wpt>
  <wpt lat="29.248281" lon="103.769407"><ele>626</ele><name></name></wpt>
  <wpt lat="29.247488" lon="103.76858"><ele>614</ele><name></name></wpt>
  <wpt lat="29.247356" lon="103.767979"><ele>602</ele><name></name></wpt>
  <wpt lat="29.247044" lon="103.767882"><ele>602</ele><name></name></wpt>
  <wpt lat="29.24692" lon="103.767621"><ele>600</ele><name></name></wpt>
  <wpt lat="29.24677" lon="103.766881"><ele>594</ele><name></name></wpt>
  <wpt lat="29.246289" lon="103.767396"><ele>578</ele><name></name></wpt>
  <wpt lat="29.245978" lon="103.767941"><ele>554</ele><name></name></wpt>
  <wpt lat="29.245421" lon="103.767853"><ele>545</ele><name></name></wpt>
  <wpt lat="29.245238" lon="103.768477"><ele>540</ele><name></name></wpt>
  <wpt lat="29.243539" lon="103.769605"><ele>477</ele><name></name></wpt>
  <wpt lat="29.243847" lon="103.770612"><ele>453</ele><name></name></wpt>
  <wpt lat="29.243381" lon="103.775441"><ele>481</ele><name></name></wpt>
  <wpt lat="29.244394" lon="103.778512"><ele>488</ele><name></name></wpt>
  <wpt lat="29.244394" lon="103.778512"><ele>488</ele><name></name></wpt>
  <wpt lat="29.246933" lon="103.779053"><ele>465</ele><name></name></wpt>
  <wpt lat="29.250218" lon="103.777935"><ele>477</ele><name></name></wpt>
  <wpt lat="29.252666" lon="103.779925"><ele>478</ele><name></name></wpt>
  <wpt lat="29.252709" lon="103.780795"><ele>499</ele><name></name></wpt>
  <wpt lat="29.252591" lon="103.781736"><ele>515</ele><name></name></wpt>
  <wpt lat="29.251093" lon="103.784363"><ele>538</ele><name></name></wpt>
  <wpt lat="29.251619" lon="103.787975"><ele>516</ele><name></name></wpt>
  <trk><name>犍为水星古寨</name>
      <trkseg>
        <trkpt lat="29.251815" lon="103.784007"><ele>541.10876</ele><time>2026-04-10T19:28:27.000Z</time></trkpt>
        <trkpt lat="29.251862" lon="103.784011"><ele>541.5561</ele><time>2026-04-10T19:28:32.000Z</time></trkpt>
        <trkpt lat="29.251922" lon="103.783998"><ele>541.45996</ele><time>2026-04-10T19:28:33.000Z</time></trkpt>
        <trkpt lat="29.251931" lon="103.783995"><ele>541.51276</ele><time>2026-04-10T19:28:34.000Z</time></trkpt>
        <trkpt lat="29.251961" lon="103.783953"><ele>539.3943</ele><time>2026-04-10T19:28:45.000Z</time></trkpt>
        <trkpt lat="29.252" lon="103.783906"><ele>538.1375</ele><time>2026-04-10T19:28:49.000Z</time></trkpt>
        <trkpt lat="29.252034" lon="103.783853"><ele>536.1481</ele><time>2026-04-10T19:28:52.000Z</time></trkpt>
        <trkpt lat="29.252068" lon="103.783807"><ele>534.4411</ele><time>2026-04-10T19:29:02.000Z</time></trkpt>
        <trkpt lat="29.252123" lon="103.783788"><ele>532.9381</ele><time>2026-04-10T19:29:06.000Z</time></trkpt>
        <trkpt lat="29.252172" lon="103.783785"><ele>533.3137</ele><time>2026-04-10T19:29:10.000Z</time></trkpt>
        <trkpt lat="29.252223" lon="103.783781"><ele>533.273</ele><time>2026-04-10T19:29:16.000Z</time></trkpt>
        <trkpt lat="29.252177" lon="103.783764"><ele>532.66595</ele><time>2026-04-10T19:29:41.000Z</time></trkpt>
        <trkpt lat="29.252146" lon="103.783726"><ele>531.9463</ele><time>2026-04-10T19:30:04.000Z</time></trkpt>
        <trkpt lat="29.252151" lon="103.783675"><ele>530.3935</ele><time>2026-04-10T19:30:37.000Z</time></trkpt>
        <trkpt lat="29.252161" lon="103.783621"><ele>530.0626</ele><time>2026-04-10T19:30:52.000Z</time></trkpt>
        <trkpt lat="29.252168" lon="103.783565"><ele>528.59766</ele><time>2026-04-10T19:31:00.000Z</time></trkpt>
        <trkpt lat="29.252185" lon="103.783513"><ele>527.4169</ele><time>2026-04-10T19:31:07.000Z</time></trkpt>
        <trkpt lat="29.252204" lon="103.783461"><ele>526.39526</ele><time>2026-04-10T19:31:15.000Z</time></trkpt>
        <trkpt lat="29.252216" lon="103.783405"><ele>525.48834</ele><time>2026-04-10T19:31:28.000Z</time></trkpt>
        <trkpt lat="29.252222" lon="103.783348"><ele>523.22614</ele><time>2026-04-10T19:31:52.000Z</time></trkpt>
        <trkpt lat="29.252245" lon="103.783302"><ele>521.1448</ele><time>2026-04-10T19:32:04.000Z</time></trkpt>
        <trkpt lat="29.25225" lon="103.783247"><ele>520.2213</ele><time>2026-04-10T19:32:13.000Z</time></trkpt>
        <trkpt lat="29.252242" lon="103.783189"><ele>518.9455</ele><time>2026-04-10T19:32:25.000Z</time></trkpt>
        <trkpt lat="29.252268" lon="103.783142"><ele>518.034</ele><time>2026-04-10T19:32:34.000Z</time></trkpt>
        <trkpt lat="29.252263" lon="103.783085"><ele>516.8155</ele><time>2026-04-10T19:32:47.000Z</time></trkpt>
        <trkpt lat="29.252256" lon="103.783034"><ele>515.59216</ele><time>2026-04-10T19:32:57.000Z</time></trkpt>
        <trkpt lat="29.252268" lon="103.782984"><ele>515.109</ele><time>2026-04-10T19:33:08.000Z</time></trkpt>
        <trkpt lat="29.252281" lon="103.782931"><ele>515.5192</ele><time>2026-04-10T19:33:22.000Z</time></trkpt>
        <trkpt lat="29.252278" lon="103.782879"><ele>515.9436</ele><time>2026-04-10T19:33:28.000Z</time></trkpt>
        <trkpt lat="29.252308" lon="103.782822"><ele>516.41797</ele><time>2026-04-10T19:33:37.000Z</time></trkpt>
        <trkpt lat="29.252347" lon="103.78285"><ele>516.63116</ele><time>2026-04-10T19:33:49.000Z</time></trkpt>
        <trkpt lat="29.252363" lon="103.782801"><ele>516.56274</ele><time>2026-04-10T19:34:01.000Z</time></trkpt>
        <trkpt lat="29.252372" lon="103.782745"><ele>516.9496</ele><time>2026-04-10T19:34:07.000Z</time></trkpt>
        <trkpt lat="29.25239" lon="103.782697"><ele>516.74</ele><time>2026-04-10T19:34:17.000Z</time></trkpt>
        <trkpt lat="29.252387" lon="103.782646"><ele>517.24133</ele><time>2026-04-10T19:34:36.000Z</time></trkpt>
        <trkpt lat="29.252422" lon="103.782613"><ele>516.8231</ele><time>2026-04-10T19:34:46.000Z</time></trkpt>
        <trkpt lat="29.252439" lon="103.782562"><ele>516.1283</ele><time>2026-04-10T19:34:57.000Z</time></trkpt>
        <trkpt lat="29.252467" lon="103.78252"><ele>516.2653</ele><time>2026-04-10T19:35:09.000Z</time></trkpt>
        <trkpt lat="29.252499" lon="103.782483"><ele>515.9266</ele><time>2026-04-10T19:35:21.000Z</time></trkpt>
        <trkpt lat="29.252515" lon="103.782431"><ele>515.801</ele><time>2026-04-10T19:35:32.000Z</time></trkpt>
        <trkpt lat="29.252528" lon="103.782376"><ele>515.4627</ele><time>2026-04-10T19:35:42.000Z</time></trkpt>
        <trkpt lat="29.25254" lon="103.782326"><ele>514.2907</ele><time>2026-04-10T19:35:53.000Z</time></trkpt>
        <trkpt lat="29.252567" lon="103.782275"><ele>514.3981</ele><time>2026-04-10T19:36:05.000Z</time></trkpt>
        <trkpt lat="29.252563" lon="103.782222"><ele>513.7001</ele><time>2026-04-10T19:36:17.000Z</time></trkpt>
        <trkpt lat="29.252581" lon="103.78217"><ele>513.5237</ele><time>2026-04-10T19:36:28.000Z</time></trkpt>
        <trkpt lat="29.252599" lon="103.782121"><ele>513.6435</ele><time>2026-04-10T19:36:39.000Z</time></trkpt>
        <trkpt lat="29.252615" lon="103.782069"><ele>512.8547</ele><time>2026-04-10T19:36:50.000Z</time></trkpt>
        <trkpt lat="29.252628" lon="103.782017"><ele>512.4089</ele><time>2026-04-10T19:37:01.000Z</time></trkpt>
        <trkpt lat="29.252636" lon="103.781963"><ele>513.71344</ele><time>2026-04-10T19:37:14.000Z</time></trkpt>
        <trkpt lat="29.252652" lon="103.781905"><ele>513.2748</ele><time>2026-04-10T19:37:26.000Z</time></trkpt>
        <trkpt lat="29.252678" lon="103.781862"><ele>513.13324</ele><time>2026-04-10T19:37:38.000Z</time></trkpt>
        <trkpt lat="29.252686" lon="103.781807"><ele>511.8028</ele><time>2026-04-10T19:37:53.000Z</time></trkpt>
        <trkpt lat="29.2527" lon="103.781755"><ele>511.41217</ele><time>2026-04-10T19:38:05.000Z</time></trkpt>
        <trkpt lat="29.252716" lon="103.781704"><ele>510.96863</ele><time>2026-04-10T19:38:18.000Z</time></trkpt>
        <trkpt lat="29.252724" lon="103.781646"><ele>509.57004</ele><time>2026-04-10T19:38:29.000Z</time></trkpt>
        <trkpt lat="29.252725" lon="103.781593"><ele>509.4021</ele><time>2026-04-10T19:38:44.000Z</time></trkpt>
        <trkpt lat="29.252702" lon="103.781541"><ele>508.43625</ele><time>2026-04-10T19:38:51.000Z</time></trkpt>
        <trkpt lat="29.252684" lon="103.781481"><ele>508.83408</ele><time>2026-04-10T19:39:00.000Z</time></trkpt>
        <trkpt lat="29.252654" lon="103.781437"><ele>508.45306</ele><time>2026-04-10T19:39:08.000Z</time></trkpt>
        <trkpt lat="29.252661" lon="103.781382"><ele>508.85944</ele><time>2026-04-10T19:39:17.000Z</time></trkpt>
        <trkpt lat="29.252672" lon="103.781331"><ele>508.29776</ele><time>2026-04-10T19:39:24.000Z</time></trkpt>
        <trkpt lat="29.252701" lon="103.781285"><ele>507.5053</ele><time>2026-04-10T19:39:32.000Z</time></trkpt>
        <trkpt lat="29.252717" lon="103.781222"><ele>505.97437</ele><time>2026-04-10T19:39:39.000Z</time></trkpt>
        <trkpt lat="29.25274" lon="103.781177"><ele>505.9987</ele><time>2026-04-10T19:39:44.000Z</time></trkpt>
        <trkpt lat="29.252728" lon="103.781123"><ele>505.37494</ele><time>2026-04-10T19:39:49.000Z</time></trkpt>
        <trkpt lat="29.252732" lon="103.781058"><ele>503.68396</ele><time>2026-04-10T19:39:55.000Z</time></trkpt>
        <trkpt lat="29.252734" lon="103.780999"><ele>502.72528</ele><time>2026-04-10T19:39:59.000Z</time></trkpt>
        <trkpt lat="29.252792" lon="103.780912"><ele>499.62967</ele><time>2026-04-10T19:40:15.000Z</time></trkpt>
        <trkpt lat="29.252812" lon="103.78086"><ele>497.48477</ele><time>2026-04-10T19:40:30.000Z</time></trkpt>
        <trkpt lat="29.252835" lon="103.780806"><ele>496.99576</ele><time>2026-04-10T19:40:49.000Z</time></trkpt>
        <trkpt lat="29.25283" lon="103.780746"><ele>497.50296</ele><time>2026-04-10T19:40:56.000Z</time></trkpt>
        <trkpt lat="29.25282" lon="103.780695"><ele>496.99734</ele><time>2026-04-10T19:41:00.000Z</time></trkpt>
        <trkpt lat="29.25281" lon="103.780639"><ele>495.5433</ele><time>2026-04-10T19:41:05.000Z</time></trkpt>
        <trkpt lat="29.252797" lon="103.780578"><ele>494.50125</ele><time>2026-04-10T19:41:10.000Z</time></trkpt>
        <trkpt lat="29.252783" lon="103.780526"><ele>492.4338</ele><time>2026-04-10T19:41:16.000Z</time></trkpt>
        <trkpt lat="29.252775" lon="103.780468"><ele>491.83362</ele><time>2026-04-10T19:41:21.000Z</time></trkpt>
        <trkpt lat="29.252771" lon="103.780412"><ele>491.4391</ele><time>2026-04-10T19:41:26.000Z</time></trkpt>
        <trkpt lat="29.252764" lon="103.780355"><ele>490.01715</ele><time>2026-04-10T19:41:30.000Z</time></trkpt>
        <trkpt lat="29.252771" lon="103.780299"><ele>489.63922</ele><time>2026-04-10T19:41:37.000Z</time></trkpt>
        <trkpt lat="29.252777" lon="103.780246"><ele>488.73407</ele><time>2026-04-10T19:41:43.000Z</time></trkpt>
        <trkpt lat="29.252787" lon="103.780188"><ele>488.01523</ele><time>2026-04-10T19:41:49.000Z</time></trkpt>
        <trkpt lat="29.252782" lon="103.780136"><ele>486.50266</ele><time>2026-04-10T19:41:54.000Z</time></trkpt>
        <trkpt lat="29.25276" lon="103.78007"><ele>484.44992</ele><time>2026-04-10T19:41:59.000Z</time></trkpt>
        <trkpt lat="29.252759" lon="103.780017"><ele>482.6211</ele><time>2026-04-10T19:42:03.000Z</time></trkpt>
        <trkpt lat="29.252758" lon="103.779952"><ele>481.05246</ele><time>2026-04-10T19:42:07.000Z</time></trkpt>
        <trkpt lat="29.252772" lon="103.779903"><ele>479.05554</ele><time>2026-04-10T19:42:12.000Z</time></trkpt>
        <trkpt lat="29.252782" lon="103.779849"><ele>477.2232</ele><time>2026-04-10T19:42:17.000Z</time></trkpt>
        <trkpt lat="29.25278" lon="103.77979"><ele>473.90112</ele><time>2026-04-10T19:42:23.000Z</time></trkpt>
        <trkpt lat="29.252772" lon="103.779738"><ele>471.90988</ele><time>2026-04-10T19:42:28.000Z</time></trkpt>
        <trkpt lat="29.252747" lon="103.779684"><ele>469.6009</ele><time>2026-04-10T19:42:34.000Z</time></trkpt>
        <trkpt lat="29.252728" lon="103.779633"><ele>466.97348</ele><time>2026-04-10T19:42:39.000Z</time></trkpt>
        <trkpt lat="29.252706" lon="103.779576"><ele>464.94846</ele><time>2026-04-10T19:42:45.000Z</time></trkpt>
        <trkpt lat="29.252682" lon="103.779529"><ele>463.13416</ele><time>2026-04-10T19:42:50.000Z</time></trkpt>
        <trkpt lat="29.252668" lon="103.779479"><ele>461.27145</ele><time>2026-04-10T19:42:57.000Z</time></trkpt>
        <trkpt lat="29.252654" lon="103.77943"><ele>460.19565</ele><time>2026-04-10T19:43:02.000Z</time></trkpt>
        <trkpt lat="29.252644" lon="103.779375"><ele>458.37616</ele><time>2026-04-10T19:43:07.000Z</time></trkpt>
        <trkpt lat="29.252638" lon="103.779311"><ele>455.17252</ele><time>2026-04-10T19:43:13.000Z</time></trkpt>
        <trkpt lat="29.252637" lon="103.779249"><ele>453.8089</ele><time>2026-04-10T19:43:19.000Z</time></trkpt>
        <trkpt lat="29.252658" lon="103.779202"><ele>450.46298</ele><time>2026-04-10T19:43:30.000Z</time></trkpt>
        <trkpt lat="29.252694" lon="103.779166"><ele>449.51974</ele><time>2026-04-10T19:43:40.000Z</time></trkpt>
        <trkpt lat="29.252728" lon="103.779127"><ele>449.5876</ele><time>2026-04-10T19:43:48.000Z</time></trkpt>
        <trkpt lat="29.252764" lon="103.779095"><ele>450.12274</ele><time>2026-04-10T19:43:55.000Z</time></trkpt>
        <trkpt lat="29.252796" lon="103.779053"><ele>449.9852</ele><time>2026-04-10T19:44:01.000Z</time></trkpt>
        <trkpt lat="29.252835" lon="103.778993"><ele>450.31516</ele><time>2026-04-10T19:44:11.000Z</time></trkpt>
        <trkpt lat="29.25285" lon="103.778941"><ele>450.3311</ele><time>2026-04-10T19:44:18.000Z</time></trkpt>
        <trkpt lat="29.252866" lon="103.778891"><ele>449.80542</ele><time>2026-04-10T19:44:23.000Z</time></trkpt>
        <trkpt lat="29.252895" lon="103.778839"><ele>450.1464</ele><time>2026-04-10T19:44:30.000Z</time></trkpt>
        <trkpt lat="29.252916" lon="103.77879"><ele>449.92065</ele><time>2026-04-10T19:44:35.000Z</time></trkpt>
        <trkpt lat="29.252919" lon="103.778736"><ele>449.23468</ele><time>2026-04-10T19:44:41.000Z</time></trkpt>
        <trkpt lat="29.25294" lon="103.778687"><ele>450.36285</ele><time>2026-04-10T19:44:57.000Z</time></trkpt>
        <trkpt lat="29.252953" lon="103.778637"><ele>450.44785</ele><time>2026-04-10T19:45:08.000Z</time></trkpt>
        <trkpt lat="29.252949" lon="103.778698"><ele>450.4011</ele><time>2026-04-10T19:45:52.000Z</time></trkpt>
        <trkpt lat="29.252939" lon="103.77875"><ele>449.04272</ele><time>2026-04-10T19:45:55.000Z</time></trkpt>
        <trkpt lat="29.252922" lon="103.778802"><ele>449.46512</ele><time>2026-04-10T19:46:00.000Z</time></trkpt>
        <trkpt lat="29.252906" lon="103.778858"><ele>449.43347</ele><time>2026-04-10T19:46:05.000Z</time></trkpt>
        <trkpt lat="29.252873" lon="103.778905"><ele>449.25717</ele><time>2026-04-10T19:46:11.000Z</time></trkpt>
        <trkpt lat="29.252839" lon="103.778945"><ele>449.03116</ele><time>2026-04-10T19:46:18.000Z</time></trkpt>
        <trkpt lat="29.252819" lon="103.778998"><ele>449.48325</ele><time>2026-04-10T19:46:24.000Z</time></trkpt>
        <trkpt lat="29.252802" lon="103.779051"><ele>450.4289</ele><time>2026-04-10T19:46:30.000Z</time></trkpt>
        <trkpt lat="29.252761" lon="103.779094"><ele>450.45618</ele><time>2026-04-10T19:46:36.000Z</time></trkpt>
        <trkpt lat="29.252721" lon="103.779123"><ele>450.17462</ele><time>2026-04-10T19:46:41.000Z</time></trkpt>
        <trkpt lat="29.252679" lon="103.77916"><ele>448.92822</ele><time>2026-04-10T19:46:47.000Z</time></trkpt>
        <trkpt lat="29.252644" lon="103.779201"><ele>449.03464</ele><time>2026-04-10T19:46:52.000Z</time></trkpt>
        <trkpt lat="29.252616" lon="103.779252"><ele>448.95886</ele><time>2026-04-10T19:46:57.000Z</time></trkpt>
        <trkpt lat="29.252614" lon="103.779306"><ele>451.2169</ele><time>2026-04-10T19:47:14.000Z</time></trkpt>
        <trkpt lat="29.252619" lon="103.779359"><ele>451.72324</ele><time>2026-04-10T19:47:19.000Z</time></trkpt>
        <trkpt lat="29.252637" lon="103.779409"><ele>453.62793</ele><time>2026-04-10T19:47:28.000Z</time></trkpt>
        <trkpt lat="29.25266" lon="103.779455"><ele>455.71558</ele><time>2026-04-10T19:47:32.000Z</time></trkpt>
        <trkpt lat="29.252692" lon="103.779499"><ele>458.2146</ele><time>2026-04-10T19:47:38.000Z</time></trkpt>
        <trkpt lat="29.252655" lon="103.779534"><ele>460.30554</ele><time>2026-04-10T19:47:47.000Z</time></trkpt>
        <trkpt lat="29.252611" lon="103.779498"><ele>462.71802</ele><time>2026-04-10T19:48:22.000Z</time></trkpt>
        <trkpt lat="29.252577" lon="103.779459"><ele>460.5639</ele><time>2026-04-10T19:48:35.000Z</time></trkpt>
        <trkpt lat="29.252544" lon="103.779406"><ele>459.66986</ele><time>2026-04-10T19:48:43.000Z</time></trkpt>
        <trkpt lat="29.2525" lon="103.77937"><ele>456.19086</ele><time>2026-04-10T19:48:48.000Z</time></trkpt>
        <trkpt lat="29.252462" lon="103.779321"><ele>453.20102</ele><time>2026-04-10T19:48:57.000Z</time></trkpt>
        <trkpt lat="29.252488" lon="103.779273"><ele>447.9603</ele><time>2026-04-10T19:49:07.000Z</time></trkpt>
        <trkpt lat="29.252522" lon="103.779239"><ele>448.31235</ele><time>2026-04-10T19:49:15.000Z</time></trkpt>
        <trkpt lat="29.252539" lon="103.779186"><ele>444.69464</ele><time>2026-04-10T19:49:26.000Z</time></trkpt>
        <trkpt lat="29.252532" lon="103.779124"><ele>443.73615</ele><time>2026-04-10T19:50:05.000Z</time></trkpt>
        <trkpt lat="29.252536" lon="103.779072"><ele>444.81094</ele><time>2026-04-10T19:50:13.000Z</time></trkpt>
        <trkpt lat="29.252523" lon="103.779009"><ele>443.94614</ele><time>2026-04-10T19:50:23.000Z</time></trkpt>
        <trkpt lat="29.252541" lon="103.778958"><ele>444.2573</ele><time>2026-04-10T19:50:38.000Z</time></trkpt>
        <trkpt lat="29.252568" lon="103.778915"><ele>443.78555</ele><time>2026-04-10T19:50:46.000Z</time></trkpt>
        <trkpt lat="29.252581" lon="103.778862"><ele>443.72</ele><time>2026-04-10T19:50:57.000Z</time></trkpt>
        <trkpt lat="29.252621" lon="103.778831"><ele>445.13065</ele><time>2026-04-10T19:51:14.000Z</time></trkpt>
        <trkpt lat="29.252577" lon="103.778816"><ele>444.83105</ele><time>2026-04-10T19:52:17.000Z</time></trkpt>
        <trkpt lat="29.252579" lon="103.778763"><ele>444.64084</ele><time>2026-04-10T19:52:31.000Z</time></trkpt>
        <trkpt lat="29.252528" lon="103.778799"><ele>445.31412</ele><time>2026-04-10T19:53:21.000Z</time></trkpt>
        <trkpt lat="29.252553" lon="103.778751"><ele>445.15698</ele><time>2026-04-10T19:53:32.000Z</time></trkpt>
        <trkpt lat="29.252558" lon="103.778802"><ele>444.98053</ele><time>2026-04-10T19:53:45.000Z</time></trkpt>
        <trkpt lat="29.25263" lon="103.778756"><ele>445.6269</ele><time>2026-04-10T19:54:13.000Z</time></trkpt>
        <trkpt lat="29.252576" lon="103.778755"><ele>445.1395</ele><time>2026-04-10T19:54:23.000Z</time></trkpt>
        <trkpt lat="29.252523" lon="103.778767"><ele>444.6156</ele><time>2026-04-10T19:55:41.000Z</time></trkpt>
        <trkpt lat="29.252479" lon="103.7788"><ele>445.05878</ele><time>2026-04-10T19:56:00.000Z</time></trkpt>
        <trkpt lat="29.252505" lon="103.778739"><ele>444.2806</ele><time>2026-04-10T19:56:13.000Z</time></trkpt>
        <trkpt lat="29.252541" lon="103.778774"><ele>443.75348</ele><time>2026-04-10T19:56:27.000Z</time></trkpt>
        <trkpt lat="29.252514" lon="103.778817"><ele>444.80783</ele><time>2026-04-10T19:56:43.000Z</time></trkpt>
        <trkpt lat="29.252485" lon="103.778776"><ele>444.56802</ele><time>2026-04-10T19:57:17.000Z</time></trkpt>
        <trkpt lat="29.252532" lon="103.778746"><ele>444.78705</ele><time>2026-04-10T19:57:34.000Z</time></trkpt>
        <trkpt lat="29.252531" lon="103.778799"><ele>444.6728</ele><time>2026-04-10T19:57:41.000Z</time></trkpt>
        <trkpt lat="29.252485" lon="103.778782"><ele>445.2549</ele><time>2026-04-10T19:57:49.000Z</time></trkpt>
        <trkpt lat="29.252553" lon="103.778786"><ele>444.2843</ele><time>2026-04-10T19:58:05.000Z</time></trkpt>
        <trkpt lat="29.252531" lon="103.778738"><ele>444.17975</ele><time>2026-04-10T19:58:34.000Z</time></trkpt>
        <trkpt lat="29.252592" lon="103.778747"><ele>444.66684</ele><time>2026-04-10T19:59:16.000Z</time></trkpt>
        <trkpt lat="29.252635" lon="103.778767"><ele>445.44733</ele><time>2026-04-10T19:59:27.000Z</time></trkpt>
        <trkpt lat="29.252634" lon="103.778715"><ele>445.21243</ele><time>2026-04-10T20:00:45.000Z</time></trkpt>
        <trkpt lat="29.25258" lon="103.7787"><ele>444.89062</ele><time>2026-04-10T20:02:22.000Z</time></trkpt>
        <trkpt lat="29.252538" lon="103.778729"><ele>444.07416</ele><time>2026-04-10T20:02:40.000Z</time></trkpt>
        <trkpt lat="29.25254" lon="103.778677"><ele>444.15924</ele><time>2026-04-10T20:02:54.000Z</time></trkpt>
        <trkpt lat="29.252571" lon="103.778638"><ele>444.67337</ele><time>2026-04-10T20:03:04.000Z</time></trkpt>
        <trkpt lat="29.252599" lon="103.778595"><ele>444.60184</ele><time>2026-04-10T20:03:16.000Z</time></trkpt>
        <trkpt lat="29.252623" lon="103.778545"><ele>444.8912</ele><time>2026-04-10T20:03:26.000Z</time></trkpt>
        <trkpt lat="29.252623" lon="103.778488"><ele>445.45694</ele><time>2026-04-10T20:03:40.000Z</time></trkpt>
        <trkpt lat="29.252571" lon="103.778468"><ele>445.66498</ele><time>2026-04-10T20:04:10.000Z</time></trkpt>
        <trkpt lat="29.252534" lon="103.778507"><ele>445.2263</ele><time>2026-04-10T20:04:41.000Z</time></trkpt>
        <trkpt lat="29.252483" lon="103.778507"><ele>445.57114</ele><time>2026-04-10T20:05:57.000Z</time></trkpt>
        <trkpt lat="29.252457" lon="103.778552"><ele>445.53915</ele><time>2026-04-10T20:06:22.000Z</time></trkpt>
        <trkpt lat="29.252418" lon="103.778526"><ele>445.82855</ele><time>2026-04-10T20:06:32.000Z</time></trkpt>
        <trkpt lat="29.252406" lon="103.778587"><ele>446.18536</ele><time>2026-04-10T20:07:01.000Z</time></trkpt>
        <trkpt lat="29.252363" lon="103.778603"><ele>444.52405</ele><time>2026-04-10T20:07:26.000Z</time></trkpt>
        <trkpt lat="29.252326" lon="103.778643"><ele>446.82657</ele><time>2026-04-10T20:08:19.000Z</time></trkpt>
        <trkpt lat="29.25226" lon="103.778692"><ele>446.75482</ele><time>2026-04-10T20:08:25.000Z</time></trkpt>
        <trkpt lat="29.25227" lon="103.778631"><ele>446.66687</ele><time>2026-04-10T20:08:27.000Z</time></trkpt>
        <trkpt lat="29.252305" lon="103.778595"><ele>446.5872</ele><time>2026-04-10T20:08:38.000Z</time></trkpt>
        <trkpt lat="29.25234" lon="103.778631"><ele>446.78482</ele><time>2026-04-10T20:08:43.000Z</time></trkpt>
        <trkpt lat="29.25231" lon="103.778701"><ele>446.94177</ele><time>2026-04-10T20:08:44.000Z</time></trkpt>
        <trkpt lat="29.25234" lon="103.778621"><ele>446.88184</ele><time>2026-04-10T20:08:45.000Z</time></trkpt>
        <trkpt lat="29.252348" lon="103.77857"><ele>446.44727</ele><time>2026-04-10T20:08:51.000Z</time></trkpt>
        <trkpt lat="29.252341" lon="103.778514"><ele>446.70502</ele><time>2026-04-10T20:09:00.000Z</time></trkpt>
        <trkpt lat="29.252295" lon="103.77849"><ele>448.18182</ele><time>2026-04-10T20:09:24.000Z</time></trkpt>
        <trkpt lat="29.252255" lon="103.778462"><ele>447.94162</ele><time>2026-04-10T20:09:42.000Z</time></trkpt>
        <trkpt lat="29.252246" lon="103.778408"><ele>448.89618</ele><time>2026-04-10T20:09:51.000Z</time></trkpt>
        <trkpt lat="29.252282" lon="103.778375"><ele>449.19913</ele><time>2026-04-10T20:09:59.000Z</time></trkpt>
        <trkpt lat="29.252311" lon="103.778333"><ele>450.42163</ele><time>2026-04-10T20:10:13.000Z</time></trkpt>
        <trkpt lat="29.252324" lon="103.778275"><ele>449.91342</ele><time>2026-04-10T20:10:31.000Z</time></trkpt>
        <trkpt lat="29.252334" lon="103.778223"><ele>451.78665</ele><time>2026-04-10T20:10:42.000Z</time></trkpt>
        <trkpt lat="29.25235" lon="103.778172"><ele>452.90634</ele><time>2026-04-10T20:11:02.000Z</time></trkpt>
        <trkpt lat="29.252348" lon="103.778118"><ele>454.21384</ele><time>2026-04-10T20:11:18.000Z</time></trkpt>
        <trkpt lat="29.252365" lon="103.778067"><ele>455.72363</ele><time>2026-04-10T20:11:32.000Z</time></trkpt>
        <trkpt lat="29.252383" lon="103.778014"><ele>456.71198</ele><time>2026-04-10T20:11:46.000Z</time></trkpt>
        <trkpt lat="29.252353" lon="103.777969"><ele>459.3082</ele><time>2026-04-10T20:12:13.000Z</time></trkpt>
        <trkpt lat="29.252339" lon="103.777916"><ele>461.49298</ele><time>2026-04-10T20:12:26.000Z</time></trkpt>
        <trkpt lat="29.2523" lon="103.777886"><ele>463.85272</ele><time>2026-04-10T20:12:36.000Z</time></trkpt>
        <trkpt lat="29.252275" lon="103.77784"><ele>465.55078</ele><time>2026-04-10T20:12:47.000Z</time></trkpt>
        <trkpt lat="29.252244" lon="103.777799"><ele>467.34003</ele><time>2026-04-10T20:12:57.000Z</time></trkpt>
        <trkpt lat="29.252223" lon="103.777751"><ele>469.65405</ele><time>2026-04-10T20:13:08.000Z</time></trkpt>
        <trkpt lat="29.252189" lon="103.777715"><ele>472.19574</ele><time>2026-04-10T20:13:27.000Z</time></trkpt>
        <trkpt lat="29.252168" lon="103.777667"><ele>474.68973</ele><time>2026-04-10T20:13:40.000Z</time></trkpt>
        <trkpt lat="29.252135" lon="103.777629"><ele>476.74048</ele><time>2026-04-10T20:13:53.000Z</time></trkpt>
        <trkpt lat="29.252103" lon="103.777588"><ele>480.00388</ele><time>2026-04-10T20:14:16.000Z</time></trkpt>
        <trkpt lat="29.25206" lon="103.777565"><ele>483.3402</ele><time>2026-04-10T20:14:32.000Z</time></trkpt>
        <trkpt lat="29.252015" lon="103.777554"><ele>484.85867</ele><time>2026-04-10T20:14:42.000Z</time></trkpt>
        <trkpt lat="29.251972" lon="103.777534"><ele>487.09262</ele><time>2026-04-10T20:14:58.000Z</time></trkpt>
        <trkpt lat="29.251925" lon="103.777517"><ele>488.77118</ele><time>2026-04-10T20:15:11.000Z</time></trkpt>
        <trkpt lat="29.251907" lon="103.77747"><ele>490.40887</ele><time>2026-04-10T20:15:30.000Z</time></trkpt>
        <trkpt lat="29.251884" lon="103.77742"><ele>491.71014</ele><time>2026-04-10T20:15:41.000Z</time></trkpt>
        <trkpt lat="29.251913" lon="103.777375"><ele>494.49725</ele><time>2026-04-10T20:15:57.000Z</time></trkpt>
        <trkpt lat="29.251952" lon="103.777344"><ele>495.21002</ele><time>2026-04-10T20:16:13.000Z</time></trkpt>
        <trkpt lat="29.251945" lon="103.77729"><ele>497.42874</ele><time>2026-04-10T20:16:30.000Z</time></trkpt>
        <trkpt lat="29.251899" lon="103.777285"><ele>497.92963</ele><time>2026-04-10T20:16:45.000Z</time></trkpt>
        <trkpt lat="29.251917" lon="103.777237"><ele>498.97418</ele><time>2026-04-10T20:17:16.000Z</time></trkpt>
        <trkpt lat="29.251939" lon="103.777187"><ele>500.8606</ele><time>2026-04-10T20:17:28.000Z</time></trkpt>
        <trkpt lat="29.251938" lon="103.777134"><ele>502.91223</ele><time>2026-04-10T20:17:40.000Z</time></trkpt>
        <trkpt lat="29.25195" lon="103.777079"><ele>504.93518</ele><time>2026-04-10T20:17:51.000Z</time></trkpt>
        <trkpt lat="29.251953" lon="103.777024"><ele>507.154</ele><time>2026-04-10T20:18:07.000Z</time></trkpt>
        <trkpt lat="29.251907" lon="103.77702"><ele>508.9931</ele><time>2026-04-10T20:18:32.000Z</time></trkpt>
        <trkpt lat="29.25189" lon="103.776969"><ele>509.326</ele><time>2026-04-10T20:18:43.000Z</time></trkpt>
        <trkpt lat="29.251885" lon="103.776918"><ele>511.45367</ele><time>2026-04-10T20:18:58.000Z</time></trkpt>
        <trkpt lat="29.251908" lon="103.776874"><ele>514.18335</ele><time>2026-04-10T20:19:12.000Z</time></trkpt>
        <trkpt lat="29.251951" lon="103.776836"><ele>517.55524</ele><time>2026-04-10T20:19:32.000Z</time></trkpt>
        <trkpt lat="29.251953" lon="103.776783"><ele>520.01904</ele><time>2026-04-10T20:19:46.000Z</time></trkpt>
        <trkpt lat="29.251955" lon="103.776728"><ele>522.06116</ele><time>2026-04-10T20:19:56.000Z</time></trkpt>
        <trkpt lat="29.251979" lon="103.776684"><ele>521.2336</ele><time>2026-04-10T20:20:07.000Z</time></trkpt>
        <trkpt lat="29.252015" lon="103.776652"><ele>523.16266</ele><time>2026-04-10T20:20:24.000Z</time></trkpt>
        <trkpt lat="29.25205" lon="103.776613"><ele>524.09265</ele><time>2026-04-10T20:20:32.000Z</time></trkpt>
        <trkpt lat="29.252085" lon="103.776573"><ele>525.18115</ele><time>2026-04-10T20:20:53.000Z</time></trkpt>
        <trkpt lat="29.252115" lon="103.776526"><ele>526.36395</ele><time>2026-04-10T20:21:00.000Z</time></trkpt>
        <trkpt lat="29.252092" lon="103.776479"><ele>529.3641</ele><time>2026-04-10T20:21:16.000Z</time></trkpt>
        <trkpt lat="29.252058" lon="103.776439"><ele>531.88055</ele><time>2026-04-10T20:21:41.000Z</time></trkpt>
        <trkpt lat="29.252008" lon="103.776442"><ele>533.1873</ele><time>2026-04-10T20:21:53.000Z</time></trkpt>
        <trkpt lat="29.252048" lon="103.776415"><ele>533.08984</ele><time>2026-04-10T20:22:16.000Z</time></trkpt>
        <trkpt lat="29.252006" lon="103.776447"><ele>533.314</ele><time>2026-04-10T20:22:21.000Z</time></trkpt>
        <trkpt lat="29.252052" lon="103.776455"><ele>535.046</ele><time>2026-04-10T20:22:36.000Z</time></trkpt>
        <trkpt lat="29.252017" lon="103.776423"><ele>536.1496</ele><time>2026-04-10T20:23:01.000Z</time></trkpt>
        <trkpt lat="29.252015" lon="103.776367"><ele>536.8064</ele><time>2026-04-10T20:23:46.000Z</time></trkpt>
        <trkpt lat="29.251994" lon="103.776317"><ele>538.62823</ele><time>2026-04-10T20:23:57.000Z</time></trkpt>
        <trkpt lat="29.251977" lon="103.776369"><ele>540.9094</ele><time>2026-04-10T20:24:16.000Z</time></trkpt>
        <trkpt lat="29.251956" lon="103.77632"><ele>538.106</ele><time>2026-04-10T20:24:35.000Z</time></trkpt>
        <trkpt lat="29.251991" lon="103.776274"><ele>538.85065</ele><time>2026-04-10T20:24:43.000Z</time></trkpt>
        <trkpt lat="29.252011" lon="103.776225"><ele>539.29346</ele><time>2026-04-10T20:24:46.000Z</time></trkpt>
        <trkpt lat="29.251993" lon="103.77628"><ele>541.85547</ele><time>2026-04-10T20:24:56.000Z</time></trkpt>
        <trkpt lat="29.251944" lon="103.776291"><ele>540.166</ele><time>2026-04-10T20:25:14.000Z</time></trkpt>
        <trkpt lat="29.251955" lon="103.776344"><ele>539.404</ele><time>2026-04-10T20:25:27.000Z</time></trkpt>
        <trkpt lat="29.251934" lon="103.776288"><ele>538.4695</ele><time>2026-04-10T20:25:55.000Z</time></trkpt>
        <trkpt lat="29.251988" lon="103.776244"><ele>538.841</ele><time>2026-04-10T20:25:59.000Z</time></trkpt>
        <trkpt lat="29.252001" lon="103.776308"><ele>543.35065</ele><time>2026-04-10T20:28:22.000Z</time></trkpt>
        <trkpt lat="29.251989" lon="103.776254"><ele>547.03894</ele><time>2026-04-10T20:28:44.000Z</time></trkpt>
        <trkpt lat="29.252013" lon="103.776207"><ele>545.451</ele><time>2026-04-10T20:28:52.000Z</time></trkpt>
        <trkpt lat="29.25204" lon="103.776159"><ele>545.91034</ele><time>2026-04-10T20:29:02.000Z</time></trkpt>
        <trkpt lat="29.252065" lon="103.776116"><ele>549.0543</ele><time>2026-04-10T20:29:27.000Z</time></trkpt>
        <trkpt lat="29.252086" lon="103.776068"><ele>550.2769</ele><time>2026-04-10T20:29:38.000Z</time></trkpt>
        <trkpt lat="29.252128" lon="103.776036"><ele>552.1381</ele><time>2026-04-10T20:29:48.000Z</time></trkpt>
        <trkpt lat="29.252141" lon="103.775983"><ele>553.5067</ele><time>2026-04-10T20:29:56.000Z</time></trkpt>
        <trkpt lat="29.252169" lon="103.775933"><ele>555.4391</ele><time>2026-04-10T20:30:05.000Z</time></trkpt>
        <trkpt lat="29.252188" lon="103.775884"><ele>557.81635</ele><time>2026-04-10T20:30:13.000Z</time></trkpt>
        <trkpt lat="29.252202" lon="103.775832"><ele>561.5147</ele><time>2026-04-10T20:30:31.000Z</time></trkpt>
        <trkpt lat="29.252218" lon="103.775773"><ele>562.1709</ele><time>2026-04-10T20:30:40.000Z</time></trkpt>
        <trkpt lat="29.252228" lon="103.77572"><ele>563.2404</ele><time>2026-04-10T20:30:59.000Z</time></trkpt>
        <trkpt lat="29.252268" lon="103.775689"><ele>562.8169</ele><time>2026-04-10T20:31:05.000Z</time></trkpt>
        <trkpt lat="29.252297" lon="103.775647"><ele>562.9464</ele><time>2026-04-10T20:31:13.000Z</time></trkpt>
        <trkpt lat="29.252323" lon="103.775598"><ele>562.3737</ele><time>2026-04-10T20:31:21.000Z</time></trkpt>
        <trkpt lat="29.252312" lon="103.775548"><ele>563.2663</ele><time>2026-04-10T20:31:28.000Z</time></trkpt>
        <trkpt lat="29.252287" lon="103.775498"><ele>565.12103</ele><time>2026-04-10T20:31:34.000Z</time></trkpt>
        <trkpt lat="29.252279" lon="103.775438"><ele>565.90027</ele><time>2026-04-10T20:31:42.000Z</time></trkpt>
        <trkpt lat="29.252285" lon="103.775378"><ele>567.1707</ele><time>2026-04-10T20:31:49.000Z</time></trkpt>
        <trkpt lat="29.25229" lon="103.775318"><ele>569.00134</ele><time>2026-04-10T20:33:37.000Z</time></trkpt>
        <trkpt lat="29.252283" lon="103.775261"><ele>569.6219</ele><time>2026-04-10T20:33:44.000Z</time></trkpt>
        <trkpt lat="29.252284" lon="103.775205"><ele>571.10925</ele><time>2026-04-10T20:33:52.000Z</time></trkpt>
        <trkpt lat="29.252302" lon="103.775156"><ele>572.1832</ele><time>2026-04-10T20:34:00.000Z</time></trkpt>
        <trkpt lat="29.252325" lon="103.775111"><ele>572.11566</ele><time>2026-04-10T20:34:07.000Z</time></trkpt>
        <trkpt lat="29.252349" lon="103.775067"><ele>571.1445</ele><time>2026-04-10T20:34:15.000Z</time></trkpt>
        <trkpt lat="29.252372" lon="103.775014"><ele>571.9369</ele><time>2026-04-10T20:34:26.000Z</time></trkpt>
        <trkpt lat="29.252397" lon="103.774968"><ele>572.12244</ele><time>2026-04-10T20:34:35.000Z</time></trkpt>
        <trkpt lat="29.252439" lon="103.774948"><ele>569.0923</ele><time>2026-04-10T20:36:19.000Z</time></trkpt>
        <trkpt lat="29.252469" lon="103.774904"><ele>569.64606</ele><time>2026-04-10T20:39:08.000Z</time></trkpt>
        <trkpt lat="29.252427" lon="103.774927"><ele>569.21875</ele><time>2026-04-10T20:41:29.000Z</time></trkpt>
        <trkpt lat="29.252474" lon="103.77493"><ele>569.6369</ele><time>2026-04-10T20:42:02.000Z</time></trkpt>
        <trkpt lat="29.252474" lon="103.77493"><ele>569.6833</ele><time>2026-04-10T20:42:13.000Z</time></trkpt>
        <trkpt lat="29.252445" lon="103.774947"><ele>570.6844</ele><time>2026-04-10T20:43:07.000Z</time></trkpt>
        <trkpt lat="29.252489" lon="103.774918"><ele>567.835</ele><time>2026-04-10T20:45:11.000Z</time></trkpt>
        <trkpt lat="29.252527" lon="103.774886"><ele>566.1225</ele><time>2026-04-10T20:45:20.000Z</time></trkpt>
        <trkpt lat="29.252575" lon="103.774861"><ele>565.4131</ele><time>2026-04-10T20:45:29.000Z</time></trkpt>
        <trkpt lat="29.252603" lon="103.774812"><ele>564.0327</ele><time>2026-04-10T20:47:04.000Z</time></trkpt>
        <trkpt lat="29.25263" lon="103.77476"><ele>563.3826</ele><time>2026-04-10T20:47:45.000Z</time></trkpt>
        <trkpt lat="29.252665" lon="103.774714"><ele>563.4503</ele><time>2026-04-10T20:47:53.000Z</time></trkpt>
        <trkpt lat="29.252667" lon="103.77466"><ele>562.5452</ele><time>2026-04-10T20:48:02.000Z</time></trkpt>
        <trkpt lat="29.252657" lon="103.7746"><ele>563.112</ele><time>2026-04-10T20:48:24.000Z</time></trkpt>
        <trkpt lat="29.252647" lon="103.774549"><ele>562.98267</ele><time>2026-04-10T20:48:33.000Z</time></trkpt>
        <trkpt lat="29.252646" lon="103.774494"><ele>564.28</ele><time>2026-04-10T20:48:41.000Z</time></trkpt>
        <trkpt lat="29.252629" lon="103.774445"><ele>563.23376</ele><time>2026-04-10T20:48:49.000Z</time></trkpt>
        <trkpt lat="29.252603" lon="103.774402"><ele>563.7767</ele><time>2026-04-10T20:48:58.000Z</time></trkpt>
        <trkpt lat="29.252565" lon="103.774372"><ele>564.6936</ele><time>2026-04-10T20:49:06.000Z</time></trkpt>
        <trkpt lat="29.252515" lon="103.774368"><ele>565.9427</ele><time>2026-04-10T20:49:12.000Z</time></trkpt>
        <trkpt lat="29.252456" lon="103.774373"><ele>568.51074</ele><time>2026-04-10T20:49:22.000Z</time></trkpt>
        <trkpt lat="29.252407" lon="103.774378"><ele>571.23944</ele><time>2026-04-10T20:49:35.000Z</time></trkpt>
        <trkpt lat="29.252378" lon="103.774338"><ele>571.8749</ele><time>2026-04-10T20:49:47.000Z</time></trkpt>
        <trkpt lat="29.252347" lon="103.774299"><ele>572.4119</ele><time>2026-04-10T20:49:54.000Z</time></trkpt>
        <trkpt lat="29.252307" lon="103.774269"><ele>573.5185</ele><time>2026-04-10T20:50:01.000Z</time></trkpt>
        <trkpt lat="29.252261" lon="103.774248"><ele>574.5468</ele><time>2026-04-10T20:50:08.000Z</time></trkpt>
        <trkpt lat="29.252217" lon="103.774212"><ele>576.1786</ele><time>2026-04-10T20:50:17.000Z</time></trkpt>
        <trkpt lat="29.252209" lon="103.774158"><ele>576.30707</ele><time>2026-04-10T20:50:20.000Z</time></trkpt>
        <trkpt lat="29.252172" lon="103.774121"><ele>576.1135</ele><time>2026-04-10T20:50:27.000Z</time></trkpt>
        <trkpt lat="29.252177" lon="103.77407"><ele>575.5342</ele><time>2026-04-10T20:50:32.000Z</time></trkpt>
        <trkpt lat="29.252164" lon="103.774012"><ele>575.89136</ele><time>2026-04-10T20:50:39.000Z</time></trkpt>
        <trkpt lat="29.252163" lon="103.77396"><ele>575.89075</ele><time>2026-04-10T20:50:44.000Z</time></trkpt>
        <trkpt lat="29.252157" lon="103.773903"><ele>575.9317</ele><time>2026-04-10T20:51:02.000Z</time></trkpt>
        <trkpt lat="29.252138" lon="103.773852"><ele>575.5383</ele><time>2026-04-10T20:51:08.000Z</time></trkpt>
        <trkpt lat="29.252097" lon="103.77382"><ele>576.0235</ele><time>2026-04-10T20:51:16.000Z</time></trkpt>
        <trkpt lat="29.252058" lon="103.773787"><ele>577.0291</ele><time>2026-04-10T20:51:23.000Z</time></trkpt>
        <trkpt lat="29.252048" lon="103.773734"><ele>576.1098</ele><time>2026-04-10T20:51:31.000Z</time></trkpt>
        <trkpt lat="29.252019" lon="103.77369"><ele>576.0976</ele><time>2026-04-10T20:51:38.000Z</time></trkpt>
        <trkpt lat="29.252001" lon="103.773641"><ele>576.1745</ele><time>2026-04-10T20:51:43.000Z</time></trkpt>
        <trkpt lat="29.251992" lon="103.77359"><ele>575.6633</ele><time>2026-04-10T20:51:49.000Z</time></trkpt>
        <trkpt lat="29.251957" lon="103.773556"><ele>576.23114</ele><time>2026-04-10T20:51:56.000Z</time></trkpt>
        <trkpt lat="29.251917" lon="103.773531"><ele>577.1796</ele><time>2026-04-10T20:52:07.000Z</time></trkpt>
        <trkpt lat="29.251943" lon="103.773472"><ele>576.4376</ele><time>2026-04-10T20:52:14.000Z</time></trkpt>
        <trkpt lat="29.251983" lon="103.773437"><ele>575.1485</ele><time>2026-04-10T20:52:19.000Z</time></trkpt>
        <trkpt lat="29.252023" lon="103.773399"><ele>574.0533</ele><time>2026-04-10T20:52:28.000Z</time></trkpt>
        <trkpt lat="29.252081" lon="103.773397"><ele>574.1464</ele><time>2026-04-10T20:52:42.000Z</time></trkpt>
        <trkpt lat="29.252083" lon="103.773342"><ele>573.6416</ele><time>2026-04-10T20:52:51.000Z</time></trkpt>
        <trkpt lat="29.252099" lon="103.773287"><ele>574.32996</ele><time>2026-04-10T20:53:09.000Z</time></trkpt>
        <trkpt lat="29.252135" lon="103.773256"><ele>573.37445</ele><time>2026-04-10T20:53:22.000Z</time></trkpt>
        <trkpt lat="29.252154" lon="103.773207"><ele>573.9966</ele><time>2026-04-10T20:53:33.000Z</time></trkpt>
        <trkpt lat="29.252187" lon="103.773158"><ele>573.8943</ele><time>2026-04-10T20:53:40.000Z</time></trkpt>
        <trkpt lat="29.252212" lon="103.773114"><ele>573.85114</ele><time>2026-04-10T20:53:48.000Z</time></trkpt>
        <trkpt lat="29.252241" lon="103.773073"><ele>574.3323</ele><time>2026-04-10T20:54:01.000Z</time></trkpt>
        <trkpt lat="29.252282" lon="103.773047"><ele>574.5083</ele><time>2026-04-10T20:54:06.000Z</time></trkpt>
        <trkpt lat="29.252313" lon="103.773"><ele>574.8479</ele><time>2026-04-10T20:54:12.000Z</time></trkpt>
        <trkpt lat="29.252353" lon="103.772955"><ele>575.54224</ele><time>2026-04-10T20:54:19.000Z</time></trkpt>
        <trkpt lat="29.252395" lon="103.772928"><ele>574.8772</ele><time>2026-04-10T20:54:25.000Z</time></trkpt>
        <trkpt lat="29.252417" lon="103.772878"><ele>575.2501</ele><time>2026-04-10T20:54:30.000Z</time></trkpt>
        <trkpt lat="29.252477" lon="103.772851"><ele>575.6102</ele><time>2026-04-10T20:54:35.000Z</time></trkpt>
        <trkpt lat="29.252506" lon="103.772806"><ele>574.6659</ele><time>2026-04-10T20:54:42.000Z</time></trkpt>
        <trkpt lat="29.252537" lon="103.772758"><ele>574.52484</ele><time>2026-04-10T20:54:58.000Z</time></trkpt>
        <trkpt lat="29.252572" lon="103.772717"><ele>574.45764</ele><time>2026-04-10T20:55:07.000Z</time></trkpt>
        <trkpt lat="29.252586" lon="103.772665"><ele>574.4935</ele><time>2026-04-10T20:55:12.000Z</time></trkpt>
        <trkpt lat="29.252619" lon="103.772626"><ele>574.6349</ele><time>2026-04-10T20:55:22.000Z</time></trkpt>
        <trkpt lat="29.252652" lon="103.772589"><ele>574.7683</ele><time>2026-04-10T20:56:11.000Z</time></trkpt>
        <trkpt lat="29.252697" lon="103.772577"><ele>574.18115</ele><time>2026-04-10T20:56:21.000Z</time></trkpt>
        <trkpt lat="29.252726" lon="103.772537"><ele>574.2161</ele><time>2026-04-10T20:56:29.000Z</time></trkpt>
        <trkpt lat="29.252742" lon="103.772479"><ele>574.63293</ele><time>2026-04-10T20:56:57.000Z</time></trkpt>
        <trkpt lat="29.25272" lon="103.772432"><ele>574.7269</ele><time>2026-04-10T20:57:15.000Z</time></trkpt>
        <trkpt lat="29.252728" lon="103.772377"><ele>575.0111</ele><time>2026-04-10T20:57:28.000Z</time></trkpt>
        <trkpt lat="29.252738" lon="103.772326"><ele>574.96124</ele><time>2026-04-10T20:57:34.000Z</time></trkpt>
        <trkpt lat="29.252765" lon="103.772285"><ele>574.98267</ele><time>2026-04-10T20:57:39.000Z</time></trkpt>
        <trkpt lat="29.252808" lon="103.772259"><ele>574.2984</ele><time>2026-04-10T20:57:44.000Z</time></trkpt>
        <trkpt lat="29.252858" lon="103.772254"><ele>574.75256</ele><time>2026-04-10T20:57:49.000Z</time></trkpt>
        <trkpt lat="29.252912" lon="103.772262"><ele>574.0592</ele><time>2026-04-10T20:57:54.000Z</time></trkpt>
        <trkpt lat="29.252964" lon="103.772279"><ele>574.5255</ele><time>2026-04-10T20:57:59.000Z</time></trkpt>
        <trkpt lat="29.253011" lon="103.772282"><ele>574.2011</ele><time>2026-04-10T20:58:03.000Z</time></trkpt>
        <trkpt lat="29.253062" lon="103.772299"><ele>574.2227</ele><time>2026-04-10T20:58:08.000Z</time></trkpt>
        <trkpt lat="29.253111" lon="103.772325"><ele>573.067</ele><time>2026-04-10T20:58:15.000Z</time></trkpt>
        <trkpt lat="29.253159" lon="103.772321"><ele>573.12067</ele><time>2026-04-10T20:58:20.000Z</time></trkpt>
        <trkpt lat="29.25318" lon="103.772268"><ele>573.1892</ele><time>2026-04-10T20:58:25.000Z</time></trkpt>
        <trkpt lat="29.25322" lon="103.772228"><ele>573.9887</ele><time>2026-04-10T20:58:32.000Z</time></trkpt>
        <trkpt lat="29.253261" lon="103.772191"><ele>574.1627</ele><time>2026-04-10T20:58:38.000Z</time></trkpt>
        <trkpt lat="29.253304" lon="103.772162"><ele>574.65173</ele><time>2026-04-10T20:58:43.000Z</time></trkpt>
        <trkpt lat="29.253353" lon="103.772155"><ele>574.26825</ele><time>2026-04-10T20:58:49.000Z</time></trkpt>
        <trkpt lat="29.253395" lon="103.772135"><ele>574.3674</ele><time>2026-04-10T20:59:01.000Z</time></trkpt>
        <trkpt lat="29.25344" lon="103.772129"><ele>574.414</ele><time>2026-04-10T20:59:08.000Z</time></trkpt>
        <trkpt lat="29.25349" lon="103.772125"><ele>573.78503</ele><time>2026-04-10T20:59:15.000Z</time></trkpt>
        <trkpt lat="29.253538" lon="103.772097"><ele>574.3286</ele><time>2026-04-10T20:59:23.000Z</time></trkpt>
        <trkpt lat="29.253568" lon="103.772057"><ele>573.9379</ele><time>2026-04-10T20:59:30.000Z</time></trkpt>
        <trkpt lat="29.25358" lon="103.772007"><ele>574.8489</ele><time>2026-04-10T21:09:53.000Z</time></trkpt>
        <trkpt lat="29.253575" lon="103.77195"><ele>576.10645</ele><time>2026-04-10T21:11:37.000Z</time></trkpt>
        <trkpt lat="29.253554" lon="103.771897"><ele>576.4937</ele><time>2026-04-10T21:11:42.000Z</time></trkpt>
        <trkpt lat="29.253528" lon="103.77185"><ele>578.2882</ele><time>2026-04-10T21:11:47.000Z</time></trkpt>
        <trkpt lat="29.253496" lon="103.771806"><ele>578.95514</ele><time>2026-04-10T21:12:02.000Z</time></trkpt>
        <trkpt lat="29.253473" lon="103.771753"><ele>579.84436</ele><time>2026-04-10T21:12:11.000Z</time></trkpt>
        <trkpt lat="29.253432" lon="103.771706"><ele>581.25275</ele><time>2026-04-10T21:12:18.000Z</time></trkpt>
        <trkpt lat="29.253421" lon="103.77165"><ele>584.07355</ele><time>2026-04-10T21:12:25.000Z</time></trkpt>
        <trkpt lat="29.253424" lon="103.771594"><ele>586.0498</ele><time>2026-04-10T21:12:32.000Z</time></trkpt>
        <trkpt lat="29.253389" lon="103.771557"><ele>587.65314</ele><time>2026-04-10T21:12:48.000Z</time></trkpt>
        <trkpt lat="29.253423" lon="103.771523"><ele>589.25214</ele><time>2026-04-10T21:13:02.000Z</time></trkpt>
        <trkpt lat="29.25344" lon="103.771475"><ele>588.8579</ele><time>2026-04-10T21:13:13.000Z</time></trkpt>
        <trkpt lat="29.253397" lon="103.771448"><ele>591.7793</ele><time>2026-04-10T21:13:33.000Z</time></trkpt>
        <trkpt lat="29.253344" lon="103.771459"><ele>593.5033</ele><time>2026-04-10T21:13:42.000Z</time></trkpt>
        <trkpt lat="29.253294" lon="103.771459"><ele>594.2226</ele><time>2026-04-10T21:13:53.000Z</time></trkpt>
        <trkpt lat="29.253253" lon="103.77148"><ele>594.49146</ele><time>2026-04-10T21:14:02.000Z</time></trkpt>
        <trkpt lat="29.253208" lon="103.771501"><ele>594.8389</ele><time>2026-04-10T21:14:16.000Z</time></trkpt>
        <trkpt lat="29.253188" lon="103.771452"><ele>595.44104</ele><time>2026-04-10T21:14:44.000Z</time></trkpt>
        <trkpt lat="29.253208" lon="103.771395"><ele>595.9678</ele><time>2026-04-10T21:14:54.000Z</time></trkpt>
        <trkpt lat="29.253221" lon="103.77134"><ele>596.89276</ele><time>2026-04-10T21:15:00.000Z</time></trkpt>
        <trkpt lat="29.253244" lon="103.771294"><ele>597.8649</ele><time>2026-04-10T21:15:06.000Z</time></trkpt>
        <trkpt lat="29.253235" lon="103.771236"><ele>599.68207</ele><time>2026-04-10T21:15:20.000Z</time></trkpt>
        <trkpt lat="29.2532" lon="103.7712"><ele>600.7067</ele><time>2026-04-10T21:15:26.000Z</time></trkpt>
        <trkpt lat="29.253168" lon="103.771152"><ele>601.2216</ele><time>2026-04-10T21:15:33.000Z</time></trkpt>
        <trkpt lat="29.253119" lon="103.771165"><ele>601.9226</ele><time>2026-04-10T21:15:43.000Z</time></trkpt>
        <trkpt lat="29.253073" lon="103.771172"><ele>602.86224</ele><time>2026-04-10T21:15:56.000Z</time></trkpt>
        <trkpt lat="29.253033" lon="103.771198"><ele>603.3695</ele><time>2026-04-10T21:16:05.000Z</time></trkpt>
        <trkpt lat="29.252995" lon="103.771231"><ele>604.69507</ele><time>2026-04-10T21:16:16.000Z</time></trkpt>
        <trkpt lat="29.252967" lon="103.771276"><ele>604.4783</ele><time>2026-04-10T21:16:22.000Z</time></trkpt>
        <trkpt lat="29.25294" lon="103.77133"><ele>604.53687</ele><time>2026-04-10T21:16:28.000Z</time></trkpt>
        <trkpt lat="29.252906" lon="103.771374"><ele>604.6248</ele><time>2026-04-10T21:16:35.000Z</time></trkpt>
        <trkpt lat="29.252861" lon="103.771399"><ele>605.07996</ele><time>2026-04-10T21:16:41.000Z</time></trkpt>
        <trkpt lat="29.252818" lon="103.771419"><ele>604.7921</ele><time>2026-04-10T21:16:46.000Z</time></trkpt>
        <trkpt lat="29.252784" lon="103.771455"><ele>605.1564</ele><time>2026-04-10T21:16:50.000Z</time></trkpt>
        <trkpt lat="29.252739" lon="103.771449"><ele>606.34296</ele><time>2026-04-10T21:16:56.000Z</time></trkpt>
        <trkpt lat="29.252689" lon="103.771454"><ele>606.40173</ele><time>2026-04-10T21:17:03.000Z</time></trkpt>
        <trkpt lat="29.252643" lon="103.771437"><ele>607.8955</ele><time>2026-04-10T21:17:20.000Z</time></trkpt>
        <trkpt lat="29.252588" lon="103.771433"><ele>608.02374</ele><time>2026-04-10T21:17:27.000Z</time></trkpt>
        <trkpt lat="29.252536" lon="103.771412"><ele>608.997</ele><time>2026-04-10T21:17:32.000Z</time></trkpt>
        <trkpt lat="29.25249" lon="103.771416"><ele>609.7452</ele><time>2026-04-10T21:17:37.000Z</time></trkpt>
        <trkpt lat="29.252438" lon="103.771428"><ele>610.5834</ele><time>2026-04-10T21:17:42.000Z</time></trkpt>
        <trkpt lat="29.252395" lon="103.771447"><ele>610.1815</ele><time>2026-04-10T21:17:48.000Z</time></trkpt>
        <trkpt lat="29.252355" lon="103.77147"><ele>610.49963</ele><time>2026-04-10T21:17:53.000Z</time></trkpt>
        <trkpt lat="29.252316" lon="103.771511"><ele>609.26184</ele><time>2026-04-10T21:17:58.000Z</time></trkpt>
        <trkpt lat="29.252284" lon="103.771555"><ele>608.7037</ele><time>2026-04-10T21:18:04.000Z</time></trkpt>
        <trkpt lat="29.252267" lon="103.771607"><ele>608.4801</ele><time>2026-04-10T21:18:11.000Z</time></trkpt>
        <trkpt lat="29.252237" lon="103.771651"><ele>607.4957</ele><time>2026-04-10T21:18:26.000Z</time></trkpt>
        <trkpt lat="29.252212" lon="103.7717"><ele>607.1707</ele><time>2026-04-10T21:18:32.000Z</time></trkpt>
        <trkpt lat="29.252181" lon="103.771738"><ele>606.73724</ele><time>2026-04-10T21:18:48.000Z</time></trkpt>
        <trkpt lat="29.252172" lon="103.771793"><ele>606.9982</ele><time>2026-04-10T21:18:56.000Z</time></trkpt>
        <trkpt lat="29.252155" lon="103.771842"><ele>606.7316</ele><time>2026-04-10T21:19:16.000Z</time></trkpt>
        <trkpt lat="29.252144" lon="103.771893"><ele>605.42084</ele><time>2026-04-10T21:20:02.000Z</time></trkpt>
        <trkpt lat="29.252102" lon="103.771912"><ele>605.844</ele><time>2026-04-10T21:21:42.000Z</time></trkpt>
      </trkseg>
      <trkseg>
        <trkpt lat="29.251127" lon="103.771797"><ele>621.0306</ele><time>2026-04-10T21:33:15.000Z</time></trkpt>
        <trkpt lat="29.251145" lon="103.771709"><ele>624.03467</ele><time>2026-04-10T21:34:41.000Z</time></trkpt>
        <trkpt lat="29.251139" lon="103.771643"><ele>625.3945</ele><time>2026-04-10T21:34:50.000Z</time></trkpt>
        <trkpt lat="29.251153" lon="103.771591"><ele>626.0109</ele><time>2026-04-10T21:34:57.000Z</time></trkpt>
        <trkpt lat="29.251196" lon="103.771567"><ele>626.5164</ele><time>2026-04-10T21:35:13.000Z</time></trkpt>
        <trkpt lat="29.251186" lon="103.771512"><ele>627.4545</ele><time>2026-04-10T21:35:20.000Z</time></trkpt>
        <trkpt lat="29.251182" lon="103.771454"><ele>627.6194</ele><time>2026-04-10T21:35:27.000Z</time></trkpt>
        <trkpt lat="29.251152" lon="103.771409"><ele>628.81067</ele><time>2026-04-10T21:35:33.000Z</time></trkpt>
        <trkpt lat="29.251111" lon="103.771378"><ele>628.9322</ele><time>2026-04-10T21:35:39.000Z</time></trkpt>
        <trkpt lat="29.251064" lon="103.77136"><ele>628.6258</ele><time>2026-04-10T21:35:46.000Z</time></trkpt>
        <trkpt lat="29.251011" lon="103.77135"><ele>628.3071</ele><time>2026-04-10T21:35:54.000Z</time></trkpt>
        <trkpt lat="29.250972" lon="103.771314"><ele>627.0811</ele><time>2026-04-10T21:36:01.000Z</time></trkpt>
        <trkpt lat="29.250943" lon="103.771265"><ele>626.6862</ele><time>2026-04-10T21:36:07.000Z</time></trkpt>
        <trkpt lat="29.250942" lon="103.771213"><ele>626.12805</ele><time>2026-04-10T21:36:13.000Z</time></trkpt>
        <trkpt lat="29.250941" lon="103.771151"><ele>625.78345</ele><time>2026-04-10T21:36:19.000Z</time></trkpt>
        <trkpt lat="29.250903" lon="103.771102"><ele>625.7637</ele><time>2026-04-10T21:36:28.000Z</time></trkpt>
        <trkpt lat="29.250891" lon="103.771049"><ele>626.38934</ele><time>2026-04-10T21:36:33.000Z</time></trkpt>
        <trkpt lat="29.250881" lon="103.77099"><ele>625.9669</ele><time>2026-04-10T21:36:38.000Z</time></trkpt>
        <trkpt lat="29.250878" lon="103.770937"><ele>627.05664</ele><time>2026-04-10T21:36:47.000Z</time></trkpt>
        <trkpt lat="29.250839" lon="103.7709"><ele>627.4033</ele><time>2026-04-10T21:37:02.000Z</time></trkpt>
        <trkpt lat="29.250839" lon="103.770845"><ele>627.55164</ele><time>2026-04-10T21:37:06.000Z</time></trkpt>
        <trkpt lat="29.250808" lon="103.770801"><ele>626.8276</ele><time>2026-04-10T21:37:13.000Z</time></trkpt>
        <trkpt lat="29.250786" lon="103.770745"><ele>626.67676</ele><time>2026-04-10T21:37:19.000Z</time></trkpt>
        <trkpt lat="29.250749" lon="103.770705"><ele>627.0727</ele><time>2026-04-10T21:37:24.000Z</time></trkpt>
        <trkpt lat="29.250701" lon="103.770677"><ele>627.8436</ele><time>2026-04-10T21:37:29.000Z</time></trkpt>
        <trkpt lat="29.250658" lon="103.770655"><ele>627.2733</ele><time>2026-04-10T21:37:34.000Z</time></trkpt>
        <trkpt lat="29.250613" lon="103.770629"><ele>627.84753</ele><time>2026-04-10T21:37:39.000Z</time></trkpt>
        <trkpt lat="29.250568" lon="103.770609"><ele>626.9713</ele><time>2026-04-10T21:37:45.000Z</time></trkpt>
        <trkpt lat="29.250523" lon="103.770583"><ele>626.73315</ele><time>2026-04-10T21:37:51.000Z</time></trkpt>
        <trkpt lat="29.250482" lon="103.770552"><ele>627.10486</ele><time>2026-04-10T21:37:55.000Z</time></trkpt>
        <trkpt lat="29.250444" lon="103.770515"><ele>627.20685</ele><time>2026-04-10T21:38:00.000Z</time></trkpt>
        <trkpt lat="29.250404" lon="103.77049"><ele>627.675</ele><time>2026-04-10T21:38:04.000Z</time></trkpt>
        <trkpt lat="29.250361" lon="103.77047"><ele>627.2433</ele><time>2026-04-10T21:38:09.000Z</time></trkpt>
        <trkpt lat="29.250311" lon="103.770449"><ele>627.33435</ele><time>2026-04-10T21:38:14.000Z</time></trkpt>
        <trkpt lat="29.250268" lon="103.770425"><ele>627.793</ele><time>2026-04-10T21:38:18.000Z</time></trkpt>
        <trkpt lat="29.25022" lon="103.770408"><ele>627.93115</ele><time>2026-04-10T21:38:23.000Z</time></trkpt>
        <trkpt lat="29.250172" lon="103.770419"><ele>627.1676</ele><time>2026-04-10T21:38:30.000Z</time></trkpt>
        <trkpt lat="29.25012" lon="103.770404"><ele>627.9409</ele><time>2026-04-10T21:38:34.000Z</time></trkpt>
        <trkpt lat="29.250073" lon="103.770412"><ele>628.23846</ele><time>2026-04-10T21:38:39.000Z</time></trkpt>
        <trkpt lat="29.250023" lon="103.770405"><ele>627.6709</ele><time>2026-04-10T21:38:45.000Z</time></trkpt>
        <trkpt lat="29.249973" lon="103.770438"><ele>626.38367</ele><time>2026-04-10T21:38:51.000Z</time></trkpt>
        <trkpt lat="29.249927" lon="103.770443"><ele>625.88416</ele><time>2026-04-10T21:38:55.000Z</time></trkpt>
        <trkpt lat="29.249879" lon="103.770473"><ele>624.91833</ele><time>2026-04-10T21:39:01.000Z</time></trkpt>
        <trkpt lat="29.249831" lon="103.770505"><ele>625.6155</ele><time>2026-04-10T21:39:07.000Z</time></trkpt>
        <trkpt lat="29.24979" lon="103.770537"><ele>625.04877</ele><time>2026-04-10T21:39:13.000Z</time></trkpt>
        <trkpt lat="29.249772" lon="103.770594"><ele>624.75024</ele><time>2026-04-10T21:39:20.000Z</time></trkpt>
        <trkpt lat="29.24976" lon="103.770656"><ele>624.78033</ele><time>2026-04-10T21:39:26.000Z</time></trkpt>
        <trkpt lat="29.249726" lon="103.770695"><ele>624.834</ele><time>2026-04-10T21:39:32.000Z</time></trkpt>
        <trkpt lat="29.249687" lon="103.770729"><ele>624.8661</ele><time>2026-04-10T21:39:37.000Z</time></trkpt>
        <trkpt lat="29.249636" lon="103.770752"><ele>623.7221</ele><time>2026-04-10T21:39:44.000Z</time></trkpt>
        <trkpt lat="29.249591" lon="103.770769"><ele>623.543</ele><time>2026-04-10T21:39:49.000Z</time></trkpt>
        <trkpt lat="29.249545" lon="103.770783"><ele>623.2893</ele><time>2026-04-10T21:39:53.000Z</time></trkpt>
        <trkpt lat="29.249499" lon="103.770796"><ele>623.83966</ele><time>2026-04-10T21:39:58.000Z</time></trkpt>
        <trkpt lat="29.249453" lon="103.770805"><ele>623.61676</ele><time>2026-04-10T21:40:03.000Z</time></trkpt>
        <trkpt lat="29.249408" lon="103.770804"><ele>622.8899</ele><time>2026-04-10T21:40:09.000Z</time></trkpt>
        <trkpt lat="29.249364" lon="103.770774"><ele>621.68835</ele><time>2026-04-10T21:41:06.000Z</time></trkpt>
        <trkpt lat="29.249329" lon="103.770733"><ele>622.14435</ele><time>2026-04-10T21:41:10.000Z</time></trkpt>
        <trkpt lat="29.24929" lon="103.770683"><ele>622.7329</ele><time>2026-04-10T21:41:15.000Z</time></trkpt>
        <trkpt lat="29.249261" lon="103.770644"><ele>623.2276</ele><time>2026-04-10T21:41:20.000Z</time></trkpt>
        <trkpt lat="29.249236" lon="103.770593"><ele>623.4638</ele><time>2026-04-10T21:41:30.000Z</time></trkpt>
        <trkpt lat="29.249257" lon="103.770544"><ele>625.1464</ele><time>2026-04-10T21:42:06.000Z</time></trkpt>
        <trkpt lat="29.249265" lon="103.770491"><ele>627.3316</ele><time>2026-04-10T21:42:14.000Z</time></trkpt>
        <trkpt lat="29.249252" lon="103.77044"><ele>627.04926</ele><time>2026-04-10T21:42:21.000Z</time></trkpt>
        <trkpt lat="29.249223" lon="103.7704"><ele>627.57416</ele><time>2026-04-10T21:42:33.000Z</time></trkpt>
        <trkpt lat="29.249274" lon="103.77039"><ele>628.14484</ele><time>2026-04-10T21:43:12.000Z</time></trkpt>
        <trkpt lat="29.249317" lon="103.770407"><ele>628.7936</ele><time>2026-04-10T21:44:05.000Z</time></trkpt>
        <trkpt lat="29.249333" lon="103.770351"><ele>628.4007</ele><time>2026-04-10T21:44:21.000Z</time></trkpt>
        <trkpt lat="29.249306" lon="103.770302"><ele>627.9958</ele><time>2026-04-10T21:44:47.000Z</time></trkpt>
        <trkpt lat="29.2493" lon="103.770248"><ele>628.7164</ele><time>2026-04-10T21:44:52.000Z</time></trkpt>
        <trkpt lat="29.249283" lon="103.770193"><ele>628.2898</ele><time>2026-04-10T21:44:56.000Z</time></trkpt>
        <trkpt lat="29.24928" lon="103.770141"><ele>627.90735</ele><time>2026-04-10T21:45:04.000Z</time></trkpt>
        <trkpt lat="29.249271" lon="103.770086"><ele>627.13776</ele><time>2026-04-10T21:45:28.000Z</time></trkpt>
        <trkpt lat="29.249217" lon="103.770067"><ele>627.4671</ele><time>2026-04-10T21:45:35.000Z</time></trkpt>
        <trkpt lat="29.249171" lon="103.770078"><ele>627.86</ele><time>2026-04-10T21:45:42.000Z</time></trkpt>
        <trkpt lat="29.249118" lon="103.770068"><ele>627.9927</ele><time>2026-04-10T21:45:48.000Z</time></trkpt>
        <trkpt lat="29.249085" lon="103.770031"><ele>627.3549</ele><time>2026-04-10T21:45:52.000Z</time></trkpt>
        <trkpt lat="29.249054" lon="103.769993"><ele>627.11633</ele><time>2026-04-10T21:45:57.000Z</time></trkpt>
        <trkpt lat="29.249014" lon="103.769958"><ele>627.0002</ele><time>2026-04-10T21:46:02.000Z</time></trkpt>
        <trkpt lat="29.248999" lon="103.769903"><ele>625.48126</ele><time>2026-04-10T21:46:13.000Z</time></trkpt>
        <trkpt lat="29.248999" lon="103.769848"><ele>625.4546</ele><time>2026-04-10T21:46:32.000Z</time></trkpt>
        <trkpt lat="29.248972" lon="103.7698"><ele>626.1703</ele><time>2026-04-10T21:46:38.000Z</time></trkpt>
        <trkpt lat="29.248934" lon="103.76976"><ele>627.3832</ele><time>2026-04-10T21:46:43.000Z</time></trkpt>
        <trkpt lat="29.248886" lon="103.769739"><ele>628.6152</ele><time>2026-04-10T21:46:49.000Z</time></trkpt>
        <trkpt lat="29.248837" lon="103.76973"><ele>628.2822</ele><time>2026-04-10T21:46:56.000Z</time></trkpt>
        <trkpt lat="29.248799" lon="103.7697"><ele>627.72577</ele><time>2026-04-10T21:47:04.000Z</time></trkpt>
        <trkpt lat="29.248776" lon="103.769648"><ele>629.10626</ele><time>2026-04-10T21:47:17.000Z</time></trkpt>
        <trkpt lat="29.248762" lon="103.769599"><ele>626.4824</ele><time>2026-04-10T21:47:23.000Z</time></trkpt>
        <trkpt lat="29.248731" lon="103.769558"><ele>626.1367</ele><time>2026-04-10T21:47:30.000Z</time></trkpt>
        <trkpt lat="29.248684" lon="103.769526"><ele>625.50085</ele><time>2026-04-10T21:47:37.000Z</time></trkpt>
        <trkpt lat="29.248648" lon="103.769494"><ele>625.81586</ele><time>2026-04-10T21:47:43.000Z</time></trkpt>
        <trkpt lat="29.248598" lon="103.769478"><ele>625.7221</ele><time>2026-04-10T21:47:53.000Z</time></trkpt>
        <trkpt lat="29.248551" lon="103.769448"><ele>627.2037</ele><time>2026-04-10T21:48:00.000Z</time></trkpt>
        <trkpt lat="29.248505" lon="103.769442"><ele>625.9526</ele><time>2026-04-10T21:48:16.000Z</time></trkpt>
        <trkpt lat="29.248463" lon="103.769421"><ele>627.05774</ele><time>2026-04-10T21:48:24.000Z</time></trkpt>
        <trkpt lat="29.248422" lon="103.769393"><ele>627.1511</ele><time>2026-04-10T21:48:29.000Z</time></trkpt>
        <trkpt lat="29.248374" lon="103.769388"><ele>626.53455</ele><time>2026-04-10T21:48:34.000Z</time></trkpt>
        <trkpt lat="29.248332" lon="103.769409"><ele>626.8283</ele><time>2026-04-10T21:48:55.000Z</time></trkpt>
        <trkpt lat="29.248281" lon="103.769407"><ele>626.4312</ele><time>2026-04-10T21:49:02.000Z</time></trkpt>
        <trkpt lat="29.248233" lon="103.769402"><ele>626.3683</ele><time>2026-04-10T21:49:09.000Z</time></trkpt>
        <trkpt lat="29.248197" lon="103.769366"><ele>625.5551</ele><time>2026-04-10T21:49:14.000Z</time></trkpt>
        <trkpt lat="29.248161" lon="103.769314"><ele>625.69305</ele><time>2026-04-10T21:49:21.000Z</time></trkpt>
        <trkpt lat="29.24813" lon="103.769268"><ele>625.684</ele><time>2026-04-10T21:49:27.000Z</time></trkpt>
        <trkpt lat="29.248089" lon="103.769236"><ele>625.1656</ele><time>2026-04-10T21:49:32.000Z</time></trkpt>
        <trkpt lat="29.24806" lon="103.769189"><ele>625.35046</ele><time>2026-04-10T21:49:36.000Z</time></trkpt>
        <trkpt lat="29.248044" lon="103.769137"><ele>625.41846</ele><time>2026-04-10T21:49:41.000Z</time></trkpt>
        <trkpt lat="29.248034" lon="103.769086"><ele>625.30365</ele><time>2026-04-10T21:49:45.000Z</time></trkpt>
        <trkpt lat="29.24801" lon="103.769033"><ele>625.0031</ele><time>2026-04-10T21:49:51.000Z</time></trkpt>
        <trkpt lat="29.247995" lon="103.76898"><ele>624.67267</ele><time>2026-04-10T21:49:55.000Z</time></trkpt>
        <trkpt lat="29.247963" lon="103.768924"><ele>624.89514</ele><time>2026-04-10T21:50:00.000Z</time></trkpt>
        <trkpt lat="29.247932" lon="103.768874"><ele>624.8112</ele><time>2026-04-10T21:50:04.000Z</time></trkpt>
        <trkpt lat="29.247897" lon="103.768828"><ele>624.67596</ele><time>2026-04-10T21:50:08.000Z</time></trkpt>
        <trkpt lat="29.24787" lon="103.768786"><ele>625.008</ele><time>2026-04-10T21:50:12.000Z</time></trkpt>
        <trkpt lat="29.247842" lon="103.768745"><ele>624.6211</ele><time>2026-04-10T21:50:16.000Z</time></trkpt>
        <trkpt lat="29.247811" lon="103.768693"><ele>624.57904</ele><time>2026-04-10T21:50:20.000Z</time></trkpt>
        <trkpt lat="29.247765" lon="103.768654"><ele>624.6083</ele><time>2026-04-10T21:50:26.000Z</time></trkpt>
        <trkpt lat="29.247726" lon="103.768622"><ele>621.8915</ele><time>2026-04-10T21:50:33.000Z</time></trkpt>
        <trkpt lat="29.24768" lon="103.768609"><ele>618.1399</ele><time>2026-04-10T21:50:38.000Z</time></trkpt>
        <trkpt lat="29.247631" lon="103.768601"><ele>616.3821</ele><time>2026-04-10T21:50:43.000Z</time></trkpt>
        <trkpt lat="29.247582" lon="103.768605"><ele>615.9442</ele><time>2026-04-10T21:51:11.000Z</time></trkpt>
        <trkpt lat="29.247535" lon="103.768577"><ele>614.3356</ele><time>2026-04-10T21:51:22.000Z</time></trkpt>
        <trkpt lat="29.247488" lon="103.76858"><ele>614.016</ele><time>2026-04-10T21:51:41.000Z</time></trkpt>
        <trkpt lat="29.247483" lon="103.768527"><ele>612.1917</ele><time>2026-04-10T21:52:44.000Z</time></trkpt>
        <trkpt lat="29.247479" lon="103.768471"><ele>610.89923</ele><time>2026-04-10T21:53:08.000Z</time></trkpt>
        <trkpt lat="29.247446" lon="103.768435"><ele>610.0019</ele><time>2026-04-10T21:53:13.000Z</time></trkpt>
        <trkpt lat="29.247413" lon="103.768397"><ele>608.50745</ele><time>2026-04-10T21:53:34.000Z</time></trkpt>
        <trkpt lat="29.247408" lon="103.768345"><ele>606.8881</ele><time>2026-04-10T21:54:28.000Z</time></trkpt>
        <trkpt lat="29.247398" lon="103.768292"><ele>605.9686</ele><time>2026-04-10T21:54:40.000Z</time></trkpt>
        <trkpt lat="29.247402" lon="103.768235"><ele>605.559</ele><time>2026-04-10T21:54:48.000Z</time></trkpt>
        <trkpt lat="29.247389" lon="103.768181"><ele>605.1966</ele><time>2026-04-10T21:54:56.000Z</time></trkpt>
        <trkpt lat="29.24737" lon="103.768134"><ele>604.4642</ele><time>2026-04-10T21:55:04.000Z</time></trkpt>
        <trkpt lat="29.247364" lon="103.76808"><ele>603.73456</ele><time>2026-04-10T21:55:14.000Z</time></trkpt>
        <trkpt lat="29.247387" lon="103.768033"><ele>603.0536</ele><time>2026-04-10T21:56:04.000Z</time></trkpt>
        <trkpt lat="29.247356" lon="103.767979"><ele>602.2137</ele><time>2026-04-10T21:56:14.000Z</time></trkpt>
        <trkpt lat="29.247342" lon="103.767926"><ele>602.715</ele><time>2026-04-10T21:56:27.000Z</time></trkpt>
        <trkpt lat="29.247296" lon="103.767924"><ele>601.8103</ele><time>2026-04-10T21:56:38.000Z</time></trkpt>
        <trkpt lat="29.247243" lon="103.767909"><ele>602.514</ele><time>2026-04-10T21:56:43.000Z</time></trkpt>
        <trkpt lat="29.247186" lon="103.767913"><ele>603.45374</ele><time>2026-04-10T21:56:49.000Z</time></trkpt>
        <trkpt lat="29.247136" lon="103.767908"><ele>602.5537</ele><time>2026-04-10T21:56:54.000Z</time></trkpt>
        <trkpt lat="29.247091" lon="103.767908"><ele>602.22314</ele><time>2026-04-10T21:56:59.000Z</time></trkpt>
        <trkpt lat="29.247044" lon="103.767882"><ele>601.5717</ele><time>2026-04-10T21:57:06.000Z</time></trkpt>
        <trkpt lat="29.247022" lon="103.767833"><ele>601.08203</ele><time>2026-04-10T21:57:21.000Z</time></trkpt>
        <trkpt lat="29.246989" lon="103.767789"><ele>600.3117</ele><time>2026-04-10T21:57:29.000Z</time></trkpt>
        <trkpt lat="29.246946" lon="103.767763"><ele>598.0935</ele><time>2026-04-10T21:57:38.000Z</time></trkpt>
        <trkpt lat="29.24691" lon="103.767732"><ele>598.8133</ele><time>2026-04-10T21:57:49.000Z</time></trkpt>
        <trkpt lat="29.246917" lon="103.767678"><ele>598.84076</ele><time>2026-04-10T21:57:59.000Z</time></trkpt>
        <trkpt lat="29.24692" lon="103.767621"><ele>599.83325</ele><time>2026-04-10T21:58:07.000Z</time></trkpt>
        <trkpt lat="29.246921" lon="103.76756"><ele>598.75415</ele><time>2026-04-10T21:58:14.000Z</time></trkpt>
        <trkpt lat="29.246917" lon="103.767506"><ele>598.2962</ele><time>2026-04-10T21:58:43.000Z</time></trkpt>
        <trkpt lat="29.246881" lon="103.767541"><ele>598.3926</ele><time>2026-04-10T21:59:19.000Z</time></trkpt>
        <trkpt lat="29.246833" lon="103.767538"><ele>596.0968</ele><time>2026-04-10T21:59:48.000Z</time></trkpt>
        <trkpt lat="29.246839" lon="103.767478"><ele>594.9292</ele><time>2026-04-10T22:00:08.000Z</time></trkpt>
        <trkpt lat="29.246883" lon="103.767451"><ele>595.1279</ele><time>2026-04-10T22:00:22.000Z</time></trkpt>
        <trkpt lat="29.246881" lon="103.76739"><ele>594.6493</ele><time>2026-04-10T22:00:30.000Z</time></trkpt>
        <trkpt lat="29.246885" lon="103.767334"><ele>595.9653</ele><time>2026-04-10T22:00:38.000Z</time></trkpt>
        <trkpt lat="29.246888" lon="103.767278"><ele>594.9317</ele><time>2026-04-10T22:00:46.000Z</time></trkpt>
        <trkpt lat="29.246849" lon="103.767237"><ele>595.9501</ele><time>2026-04-10T22:01:19.000Z</time></trkpt>
        <trkpt lat="29.246854" lon="103.767182"><ele>596.0455</ele><time>2026-04-10T22:01:26.000Z</time></trkpt>
        <trkpt lat="29.246844" lon="103.767128"><ele>595.5272</ele><time>2026-04-10T22:01:32.000Z</time></trkpt>
        <trkpt lat="29.246852" lon="103.767071"><ele>594.37933</ele><time>2026-04-10T22:01:42.000Z</time></trkpt>
        <trkpt lat="29.24685" lon="103.767013"><ele>594.9141</ele><time>2026-04-10T22:01:48.000Z</time></trkpt>
        <trkpt lat="29.246818" lon="103.766973"><ele>594.5969</ele><time>2026-04-10T22:01:54.000Z</time></trkpt>
        <trkpt lat="29.246789" lon="103.766931"><ele>594.1345</ele><time>2026-04-10T22:02:03.000Z</time></trkpt>
        <trkpt lat="29.24677" lon="103.766881"><ele>594.14056</ele><time>2026-04-10T22:02:13.000Z</time></trkpt>
        <trkpt lat="29.246729" lon="103.766857"><ele>594.1171</ele><time>2026-04-10T22:02:48.000Z</time></trkpt>
        <trkpt lat="29.246682" lon="103.766836"><ele>592.63525</ele><time>2026-04-10T22:03:02.000Z</time></trkpt>
        <trkpt lat="29.246633" lon="103.766855"><ele>592.68207</ele><time>2026-04-10T22:03:10.000Z</time></trkpt>
        <trkpt lat="29.246605" lon="103.7669"><ele>593.1815</ele><time>2026-04-10T22:03:18.000Z</time></trkpt>
        <trkpt lat="29.246569" lon="103.766947"><ele>593.7718</ele><time>2026-04-10T22:03:24.000Z</time></trkpt>
        <trkpt lat="29.246529" lon="103.766972"><ele>593.9467</ele><time>2026-04-10T22:03:31.000Z</time></trkpt>
        <trkpt lat="29.246481" lon="103.766961"><ele>594.61084</ele><time>2026-04-10T22:03:40.000Z</time></trkpt>
        <trkpt lat="29.246434" lon="103.766936"><ele>594.75635</ele><time>2026-04-10T22:03:45.000Z</time></trkpt>
        <trkpt lat="29.246388" lon="103.766922"><ele>595.7732</ele><time>2026-04-10T22:03:52.000Z</time></trkpt>
        <trkpt lat="29.246337" lon="103.76692"><ele>595.3768</ele><time>2026-04-10T22:04:00.000Z</time></trkpt>
        <trkpt lat="29.246291" lon="103.766927"><ele>595.7894</ele><time>2026-04-10T22:04:09.000Z</time></trkpt>
        <trkpt lat="29.246246" lon="103.766942"><ele>595.89795</ele><time>2026-04-10T22:04:20.000Z</time></trkpt>
        <trkpt lat="29.246202" lon="103.766959"><ele>594.62976</ele><time>2026-04-10T22:04:32.000Z</time></trkpt>
        <trkpt lat="29.246156" lon="103.766971"><ele>594.6788</ele><time>2026-04-10T22:04:38.000Z</time></trkpt>
        <trkpt lat="29.246102" lon="103.766954"><ele>594.4617</ele><time>2026-04-10T22:04:45.000Z</time></trkpt>
        <trkpt lat="29.246052" lon="103.766946"><ele>594.6225</ele><time>2026-04-10T22:04:51.000Z</time></trkpt>
        <trkpt lat="29.246002" lon="103.766958"><ele>593.39514</ele><time>2026-04-10T22:04:59.000Z</time></trkpt>
        <trkpt lat="29.245962" lon="103.76699"><ele>590.4532</ele><time>2026-04-10T22:05:09.000Z</time></trkpt>
        <trkpt lat="29.245934" lon="103.767033"><ele>589.9771</ele><time>2026-04-10T22:05:18.000Z</time></trkpt>
        <trkpt lat="29.245893" lon="103.76707"><ele>584.95905</ele><time>2026-04-10T22:05:29.000Z</time></trkpt>
        <trkpt lat="29.245889" lon="103.767124"><ele>581.96326</ele><time>2026-04-10T22:05:45.000Z</time></trkpt>
        <trkpt lat="29.2459" lon="103.76718"><ele>579.73425</ele><time>2026-04-10T22:06:04.000Z</time></trkpt>
        <trkpt lat="29.245863" lon="103.767211"><ele>577.10974</ele><time>2026-04-10T22:06:13.000Z</time></trkpt>
        <trkpt lat="29.245904" lon="103.767187"><ele>577.2627</ele><time>2026-04-10T22:06:28.000Z</time></trkpt>
        <trkpt lat="29.245953" lon="103.767166"><ele>578.2534</ele><time>2026-04-10T22:06:35.000Z</time></trkpt>
        <trkpt lat="29.246009" lon="103.767161"><ele>578.71967</ele><time>2026-04-10T22:06:40.000Z</time></trkpt>
        <trkpt lat="29.246061" lon="103.767162"><ele>577.8728</ele><time>2026-04-10T22:06:46.000Z</time></trkpt>
        <trkpt lat="29.246109" lon="103.767173"><ele>577.5103</ele><time>2026-04-10T22:06:52.000Z</time></trkpt>
        <trkpt lat="29.246158" lon="103.767172"><ele>577.6761</ele><time>2026-04-10T22:06:54.000Z</time></trkpt>
        <trkpt lat="29.2462" lon="103.767202"><ele>579.41986</ele><time>2026-04-10T22:07:02.000Z</time></trkpt>
        <trkpt lat="29.246256" lon="103.767212"><ele>579.8721</ele><time>2026-04-10T22:07:07.000Z</time></trkpt>
        <trkpt lat="29.246289" lon="103.76725"><ele>580.8908</ele><time>2026-04-10T22:07:14.000Z</time></trkpt>
        <trkpt lat="29.246296" lon="103.767302"><ele>580.15515</ele><time>2026-04-10T22:07:22.000Z</time></trkpt>
        <trkpt lat="29.246316" lon="103.767353"><ele>579.6961</ele><time>2026-04-10T22:07:28.000Z</time></trkpt>
        <trkpt lat="29.246289" lon="103.767396"><ele>577.87146</ele><time>2026-04-10T22:07:34.000Z</time></trkpt>
        <trkpt lat="29.246257" lon="103.767434"><ele>574.62463</ele><time>2026-04-10T22:07:42.000Z</time></trkpt>
        <trkpt lat="29.246224" lon="103.767476"><ele>573.03546</ele><time>2026-04-10T22:07:48.000Z</time></trkpt>
        <trkpt lat="29.246215" lon="103.767534"><ele>570.6447</ele><time>2026-04-10T22:07:54.000Z</time></trkpt>
        <trkpt lat="29.246197" lon="103.767583"><ele>567.1039</ele><time>2026-04-10T22:08:09.000Z</time></trkpt>
        <trkpt lat="29.246165" lon="103.767627"><ele>566.1627</ele><time>2026-04-10T22:08:16.000Z</time></trkpt>
        <trkpt lat="29.246133" lon="103.767669"><ele>562.95404</ele><time>2026-04-10T22:08:25.000Z</time></trkpt>
        <trkpt lat="29.246113" lon="103.767717"><ele>559.7875</ele><time>2026-04-10T22:08:32.000Z</time></trkpt>
        <trkpt lat="29.24609" lon="103.767762"><ele>558.2025</ele><time>2026-04-10T22:08:40.000Z</time></trkpt>
        <trkpt lat="29.246062" lon="103.767803"><ele>556.67957</ele><time>2026-04-10T22:08:50.000Z</time></trkpt>
        <trkpt lat="29.246036" lon="103.767847"><ele>555.1678</ele><time>2026-04-10T22:09:01.000Z</time></trkpt>
        <trkpt lat="29.246003" lon="103.767891"><ele>554.6615</ele><time>2026-04-10T22:09:11.000Z</time></trkpt>
        <trkpt lat="29.245978" lon="103.767941"><ele>554.3258</ele><time>2026-04-10T22:09:21.000Z</time></trkpt>
        <trkpt lat="29.24594" lon="103.767979"><ele>553.2653</ele><time>2026-04-10T22:09:30.000Z</time></trkpt>
        <trkpt lat="29.245908" lon="103.768019"><ele>552.6011</ele><time>2026-04-10T22:09:39.000Z</time></trkpt>
        <trkpt lat="29.24586" lon="103.768008"><ele>551.0398</ele><time>2026-04-10T22:09:49.000Z</time></trkpt>
        <trkpt lat="29.245826" lon="103.767965"><ele>549.4575</ele><time>2026-04-10T22:09:54.000Z</time></trkpt>
        <trkpt lat="29.245787" lon="103.767933"><ele>548.2093</ele><time>2026-04-10T22:10:00.000Z</time></trkpt>
        <trkpt lat="29.24575" lon="103.767902"><ele>547.25714</ele><time>2026-04-10T22:10:06.000Z</time></trkpt>
        <trkpt lat="29.245704" lon="103.767902"><ele>547.4882</ele><time>2026-04-10T22:10:10.000Z</time></trkpt>
        <trkpt lat="29.245662" lon="103.767883"><ele>547.0748</ele><time>2026-04-10T22:10:15.000Z</time></trkpt>
        <trkpt lat="29.245612" lon="103.767869"><ele>546.30756</ele><time>2026-04-10T22:10:23.000Z</time></trkpt>
        <trkpt lat="29.245564" lon="103.767844"><ele>545.9573</ele><time>2026-04-10T22:10:29.000Z</time></trkpt>
        <trkpt lat="29.245518" lon="103.767826"><ele>545.5709</ele><time>2026-04-10T22:10:35.000Z</time></trkpt>
        <trkpt lat="29.245465" lon="103.767827"><ele>545.7208</ele><time>2026-04-10T22:10:41.000Z</time></trkpt>
        <trkpt lat="29.245421" lon="103.767853"><ele>545.0688</ele><time>2026-04-10T22:10:47.000Z</time></trkpt>
        <trkpt lat="29.245392" lon="103.767895"><ele>544.16174</ele><time>2026-04-10T22:10:53.000Z</time></trkpt>
        <trkpt lat="29.245368" lon="103.767939"><ele>543.2921</ele><time>2026-04-10T22:10:57.000Z</time></trkpt>
        <trkpt lat="29.245358" lon="103.76799"><ele>543.2335</ele><time>2026-04-10T22:11:01.000Z</time></trkpt>
        <trkpt lat="29.245334" lon="103.768039"><ele>543.5197</ele><time>2026-04-10T22:11:07.000Z</time></trkpt>
        <trkpt lat="29.245313" lon="103.768094"><ele>543.6466</ele><time>2026-04-10T22:11:14.000Z</time></trkpt>
        <trkpt lat="29.245339" lon="103.768145"><ele>542.15424</ele><time>2026-04-10T22:11:21.000Z</time></trkpt>
        <trkpt lat="29.245356" lon="103.768199"><ele>541.06573</ele><time>2026-04-10T22:11:28.000Z</time></trkpt>
        <trkpt lat="29.245362" lon="103.768255"><ele>540.72314</ele><time>2026-04-10T22:11:35.000Z</time></trkpt>
        <trkpt lat="29.24535" lon="103.768305"><ele>540.39813</ele><time>2026-04-10T22:11:41.000Z</time></trkpt>
        <trkpt lat="29.245327" lon="103.76835"><ele>539.97925</ele><time>2026-04-10T22:11:50.000Z</time></trkpt>
        <trkpt lat="29.245295" lon="103.768389"><ele>540.60236</ele><time>2026-04-10T22:12:03.000Z</time></trkpt>
        <trkpt lat="29.245263" lon="103.768429"><ele>540.4132</ele><time>2026-04-10T22:12:20.000Z</time></trkpt>
        <trkpt lat="29.245238" lon="103.768477"><ele>540.0086</ele><time>2026-04-10T22:13:03.000Z</time></trkpt>
        <trkpt lat="29.245238" lon="103.768535"><ele>538.76056</ele><time>2026-04-10T22:13:36.000Z</time></trkpt>
        <trkpt lat="29.245199" lon="103.768572"><ele>537.7303</ele><time>2026-04-10T22:13:48.000Z</time></trkpt>
        <trkpt lat="29.245154" lon="103.768591"><ele>536.5121</ele><time>2026-04-10T22:13:59.000Z</time></trkpt>
        <trkpt lat="29.245107" lon="103.768611"><ele>536.1994</ele><time>2026-04-10T22:14:05.000Z</time></trkpt>
        <trkpt lat="29.24506" lon="103.768615"><ele>535.44794</ele><time>2026-04-10T22:14:12.000Z</time></trkpt>
        <trkpt lat="29.245008" lon="103.768627"><ele>535.7329</ele><time>2026-04-10T22:14:18.000Z</time></trkpt>
        <trkpt lat="29.244957" lon="103.768624"><ele>535.8135</ele><time>2026-04-10T22:14:23.000Z</time></trkpt>
        <trkpt lat="29.244912" lon="103.768628"><ele>536.3767</ele><time>2026-04-10T22:14:33.000Z</time></trkpt>
        <trkpt lat="29.244864" lon="103.768599"><ele>536.08606</ele><time>2026-04-10T22:14:39.000Z</time></trkpt>
        <trkpt lat="29.244825" lon="103.76857"><ele>536.2212</ele><time>2026-04-10T22:14:44.000Z</time></trkpt>
        <trkpt lat="29.244772" lon="103.768546"><ele>536.7461</ele><time>2026-04-10T22:14:49.000Z</time></trkpt>
        <trkpt lat="29.244728" lon="103.768531"><ele>537.0716</ele><time>2026-04-10T22:14:54.000Z</time></trkpt>
        <trkpt lat="29.244678" lon="103.768502"><ele>537.60114</ele><time>2026-04-10T22:15:00.000Z</time></trkpt>
        <trkpt lat="29.244635" lon="103.76848"><ele>538.0332</ele><time>2026-04-10T22:15:05.000Z</time></trkpt>
        <trkpt lat="29.244585" lon="103.768481"><ele>537.7102</ele><time>2026-04-10T22:15:10.000Z</time></trkpt>
        <trkpt lat="29.244534" lon="103.768501"><ele>537.1506</ele><time>2026-04-10T22:15:15.000Z</time></trkpt>
        <trkpt lat="29.244505" lon="103.768552"><ele>536.72205</ele><time>2026-04-10T22:15:22.000Z</time></trkpt>
        <trkpt lat="29.244498" lon="103.768606"><ele>536.0817</ele><time>2026-04-10T22:15:28.000Z</time></trkpt>
        <trkpt lat="29.244519" lon="103.768655"><ele>536.21246</ele><time>2026-04-10T22:15:36.000Z</time></trkpt>
        <trkpt lat="29.244539" lon="103.768707"><ele>534.8957</ele><time>2026-04-10T22:15:43.000Z</time></trkpt>
        <trkpt lat="29.244548" lon="103.768758"><ele>534.1706</ele><time>2026-04-10T22:15:50.000Z</time></trkpt>
        <trkpt lat="29.244567" lon="103.768806"><ele>533.3178</ele><time>2026-04-10T22:15:56.000Z</time></trkpt>
        <trkpt lat="29.244572" lon="103.768861"><ele>532.3376</ele><time>2026-04-10T22:16:02.000Z</time></trkpt>
        <trkpt lat="29.244577" lon="103.768926"><ele>531.47076</ele><time>2026-04-10T22:16:08.000Z</time></trkpt>
        <trkpt lat="29.244568" lon="103.768979"><ele>529.71497</ele><time>2026-04-10T22:16:13.000Z</time></trkpt>
        <trkpt lat="29.244561" lon="103.769034"><ele>528.98785</ele><time>2026-04-10T22:16:19.000Z</time></trkpt>
        <trkpt lat="29.244571" lon="103.769097"><ele>527.9504</ele><time>2026-04-10T22:16:24.000Z</time></trkpt>
        <trkpt lat="29.244584" lon="103.769154"><ele>526.9661</ele><time>2026-04-10T22:16:29.000Z</time></trkpt>
        <trkpt lat="29.244577" lon="103.769211"><ele>525.251</ele><time>2026-04-10T22:16:35.000Z</time></trkpt>
        <trkpt lat="29.244585" lon="103.769273"><ele>524.157</ele><time>2026-04-10T22:16:42.000Z</time></trkpt>
        <trkpt lat="29.244596" lon="103.769333"><ele>523.24176</ele><time>2026-04-10T22:16:49.000Z</time></trkpt>
        <trkpt lat="29.244599" lon="103.769393"><ele>521.5733</ele><time>2026-04-10T22:16:55.000Z</time></trkpt>
        <trkpt lat="29.244609" lon="103.769452"><ele>520.3419</ele><time>2026-04-10T22:17:02.000Z</time></trkpt>
        <trkpt lat="29.244584" lon="103.769497"><ele>519.70746</ele><time>2026-04-10T22:17:10.000Z</time></trkpt>
        <trkpt lat="29.244553" lon="103.769547"><ele>518.99133</ele><time>2026-04-10T22:17:17.000Z</time></trkpt>
        <trkpt lat="29.244522" lon="103.769594"><ele>518.7636</ele><time>2026-04-10T22:17:23.000Z</time></trkpt>
        <trkpt lat="29.244497" lon="103.769644"><ele>516.7226</ele><time>2026-04-10T22:17:30.000Z</time></trkpt>
        <trkpt lat="29.244468" lon="103.76969"><ele>515.70416</ele><time>2026-04-10T22:17:36.000Z</time></trkpt>
        <trkpt lat="29.244439" lon="103.769737"><ele>514.50635</ele><time>2026-04-10T22:17:42.000Z</time></trkpt>
        <trkpt lat="29.244397" lon="103.769777"><ele>513.2015</ele><time>2026-04-10T22:17:49.000Z</time></trkpt>
        <trkpt lat="29.24438" lon="103.769827"><ele>510.4296</ele><time>2026-04-10T22:17:59.000Z</time></trkpt>
        <trkpt lat="29.244349" lon="103.769881"><ele>509.98892</ele><time>2026-04-10T22:18:08.000Z</time></trkpt>
        <trkpt lat="29.244301" lon="103.76989"><ele>510.77313</ele><time>2026-04-10T22:18:13.000Z</time></trkpt>
        <trkpt lat="29.244252" lon="103.769883"><ele>514.18463</ele><time>2026-04-10T22:18:31.000Z</time></trkpt>
        <trkpt lat="29.244211" lon="103.769839"><ele>510.8823</ele><time>2026-04-10T22:18:46.000Z</time></trkpt>
        <trkpt lat="29.244175" lon="103.7698"><ele>503.1722</ele><time>2026-04-10T22:18:53.000Z</time></trkpt>
        <trkpt lat="29.244128" lon="103.76978"><ele>500.9056</ele><time>2026-04-10T22:18:59.000Z</time></trkpt>
      </trkseg>
      <trkseg>
        <trkpt lat="29.244085" lon="103.769764"><ele>499.09103</ele><time>2026-04-10T22:19:07.000Z</time></trkpt>
        <trkpt lat="29.244039" lon="103.769749"><ele>498.24643</ele><time>2026-04-10T22:19:15.000Z</time></trkpt>
        <trkpt lat="29.244007" lon="103.769709"><ele>497.5175</ele><time>2026-04-10T22:19:23.000Z</time></trkpt>
        <trkpt lat="29.243976" lon="103.769672"><ele>496.8371</ele><time>2026-04-10T22:19:34.000Z</time></trkpt>
        <trkpt lat="29.243956" lon="103.769625"><ele>497.40677</ele><time>2026-04-10T22:19:43.000Z</time></trkpt>
        <trkpt lat="29.243932" lon="103.76958"><ele>497.04626</ele><time>2026-04-10T22:19:49.000Z</time></trkpt>
        <trkpt lat="29.243897" lon="103.76954"><ele>497.4261</ele><time>2026-04-10T22:19:55.000Z</time></trkpt>
        <trkpt lat="29.243866" lon="103.7695"><ele>496.4924</ele><time>2026-04-10T22:20:00.000Z</time></trkpt>
        <trkpt lat="29.243831" lon="103.769458"><ele>496.6792</ele><time>2026-04-10T22:20:06.000Z</time></trkpt>
        <trkpt lat="29.243792" lon="103.769422"><ele>496.3319</ele><time>2026-04-10T22:20:13.000Z</time></trkpt>
        <trkpt lat="29.243763" lon="103.769373"><ele>496.27707</ele><time>2026-04-10T22:20:19.000Z</time></trkpt>
        <trkpt lat="29.243738" lon="103.769327"><ele>495.46765</ele><time>2026-04-10T22:20:25.000Z</time></trkpt>
        <trkpt lat="29.243717" lon="103.769278"><ele>495.62387</ele><time>2026-04-10T22:20:30.000Z</time></trkpt>
        <trkpt lat="29.243706" lon="103.769224"><ele>496.16956</ele><time>2026-04-10T22:20:36.000Z</time></trkpt>
        <trkpt lat="29.243682" lon="103.769173"><ele>497.29266</ele><time>2026-04-10T22:20:42.000Z</time></trkpt>
        <trkpt lat="29.24364" lon="103.769146"><ele>497.60168</ele><time>2026-04-10T22:20:51.000Z</time></trkpt>
        <trkpt lat="29.243628" lon="103.769091"><ele>497.82578</ele><time>2026-04-10T22:20:59.000Z</time></trkpt>
        <trkpt lat="29.243613" lon="103.769042"><ele>498.40842</ele><time>2026-04-10T22:21:04.000Z</time></trkpt>
        <trkpt lat="29.24359" lon="103.768992"><ele>499.2017</ele><time>2026-04-10T22:21:10.000Z</time></trkpt>
        <trkpt lat="29.243556" lon="103.768949"><ele>498.4625</ele><time>2026-04-10T22:21:16.000Z</time></trkpt>
        <trkpt lat="29.243516" lon="103.768924"><ele>498.14935</ele><time>2026-04-10T22:21:22.000Z</time></trkpt>
        <trkpt lat="29.243496" lon="103.768975"><ele>495.20612</ele><time>2026-04-10T22:21:28.000Z</time></trkpt>
        <trkpt lat="29.243512" lon="103.769031"><ele>493.2202</ele><time>2026-04-10T22:21:33.000Z</time></trkpt>
        <trkpt lat="29.243524" lon="103.769089"><ele>491.95596</ele><time>2026-04-10T22:21:38.000Z</time></trkpt>
        <trkpt lat="29.243531" lon="103.76914"><ele>490.5966</ele><time>2026-04-10T22:21:43.000Z</time></trkpt>
        <trkpt lat="29.243535" lon="103.769193"><ele>489.6647</ele><time>2026-04-10T22:21:48.000Z</time></trkpt>
        <trkpt lat="29.243533" lon="103.769254"><ele>489.3419</ele><time>2026-04-10T22:21:53.000Z</time></trkpt>
        <trkpt lat="29.243518" lon="103.76931"><ele>486.98148</ele><time>2026-04-10T22:21:59.000Z</time></trkpt>
        <trkpt lat="29.24352" lon="103.769382"><ele>484.67914</ele><time>2026-04-10T22:22:04.000Z</time></trkpt>
        <trkpt lat="29.243528" lon="103.76944"><ele>482.8422</ele><time>2026-04-10T22:22:07.000Z</time></trkpt>
        <trkpt lat="29.243517" lon="103.769501"><ele>480.82477</ele><time>2026-04-10T22:22:11.000Z</time></trkpt>
        <trkpt lat="29.243537" lon="103.769547"><ele>479.10376</ele><time>2026-04-10T22:22:16.000Z</time></trkpt>
        <trkpt lat="29.243539" lon="103.769605"><ele>476.98328</ele><time>2026-04-10T22:22:24.000Z</time></trkpt>
        <trkpt lat="29.243525" lon="103.769661"><ele>475.26178</ele><time>2026-04-10T22:22:31.000Z</time></trkpt>
        <trkpt lat="29.243525" lon="103.769717"><ele>473.52316</ele><time>2026-04-10T22:22:38.000Z</time></trkpt>
        <trkpt lat="29.243523" lon="103.76978"><ele>472.03702</ele><time>2026-04-10T22:22:46.000Z</time></trkpt>
        <trkpt lat="29.243538" lon="103.769839"><ele>470.2068</ele><time>2026-04-10T22:22:52.000Z</time></trkpt>
        <trkpt lat="29.243546" lon="103.769896"><ele>469.2662</ele><time>2026-04-10T22:22:58.000Z</time></trkpt>
        <trkpt lat="29.24357" lon="103.769948"><ele>469.0068</ele><time>2026-04-10T22:23:04.000Z</time></trkpt>
        <trkpt lat="29.24359" lon="103.770004"><ele>467.54965</ele><time>2026-04-10T22:23:10.000Z</time></trkpt>
        <trkpt lat="29.243617" lon="103.770051"><ele>466.16788</ele><time>2026-04-10T22:23:18.000Z</time></trkpt>
        <trkpt lat="29.243639" lon="103.770107"><ele>465.29816</ele><time>2026-04-10T22:23:22.000Z</time></trkpt>
        <trkpt lat="29.243667" lon="103.770149"><ele>464.51755</ele><time>2026-04-10T22:23:27.000Z</time></trkpt>
        <trkpt lat="29.243699" lon="103.770193"><ele>463.66696</ele><time>2026-04-10T22:23:33.000Z</time></trkpt>
        <trkpt lat="29.243717" lon="103.770241"><ele>463.8636</ele><time>2026-04-10T22:23:38.000Z</time></trkpt>
        <trkpt lat="29.243735" lon="103.770291"><ele>462.81985</ele><time>2026-04-10T22:23:44.000Z</time></trkpt>
        <trkpt lat="29.243762" lon="103.770345"><ele>461.31305</ele><time>2026-04-10T22:23:51.000Z</time></trkpt>
        <trkpt lat="29.243784" lon="103.770399"><ele>459.71548</ele><time>2026-04-10T22:23:58.000Z</time></trkpt>
        <trkpt lat="29.243809" lon="103.770452"><ele>457.49423</ele><time>2026-04-10T22:24:05.000Z</time></trkpt>
        <trkpt lat="29.243832" lon="103.770503"><ele>455.9971</ele><time>2026-04-10T22:24:12.000Z</time></trkpt>
        <trkpt lat="29.243847" lon="103.770556"><ele>454.4081</ele><time>2026-04-10T22:24:19.000Z</time></trkpt>
        <trkpt lat="29.243847" lon="103.770612"><ele>453.16357</ele><time>2026-04-10T22:24:27.000Z</time></trkpt>
        <trkpt lat="29.243839" lon="103.770669"><ele>453.0823</ele><time>2026-04-10T22:24:33.000Z</time></trkpt>
        <trkpt lat="29.243867" lon="103.770719"><ele>453.11783</ele><time>2026-04-10T22:24:40.000Z</time></trkpt>
        <trkpt lat="29.243895" lon="103.770762"><ele>453.44113</ele><time>2026-04-10T22:24:45.000Z</time></trkpt>
        <trkpt lat="29.243921" lon="103.770815"><ele>453.364</ele><time>2026-04-10T22:24:50.000Z</time></trkpt>
        <trkpt lat="29.243932" lon="103.770865"><ele>454.71658</ele><time>2026-04-10T22:24:54.000Z</time></trkpt>
        <trkpt lat="29.243944" lon="103.770916"><ele>456.36087</ele><time>2026-04-10T22:24:59.000Z</time></trkpt>
        <trkpt lat="29.243965" lon="103.770969"><ele>457.79388</ele><time>2026-04-10T22:25:04.000Z</time></trkpt>
        <trkpt lat="29.243971" lon="103.771021"><ele>459.16986</ele><time>2026-04-10T22:25:08.000Z</time></trkpt>
        <trkpt lat="29.243968" lon="103.771075"><ele>459.9203</ele><time>2026-04-10T22:25:13.000Z</time></trkpt>
        <trkpt lat="29.243974" lon="103.771131"><ele>461.52722</ele><time>2026-04-10T22:25:18.000Z</time></trkpt>
        <trkpt lat="29.243978" lon="103.771194"><ele>462.3768</ele><time>2026-04-10T22:25:23.000Z</time></trkpt>
        <trkpt lat="29.244005" lon="103.771253"><ele>463.2842</ele><time>2026-04-10T22:25:30.000Z</time></trkpt>
        <trkpt lat="29.244032" lon="103.771299"><ele>463.56064</ele><time>2026-04-10T22:25:39.000Z</time></trkpt>
        <trkpt lat="29.244045" lon="103.771353"><ele>464.1489</ele><time>2026-04-10T22:25:45.000Z</time></trkpt>
        <trkpt lat="29.24408" lon="103.7714"><ele>464.51202</ele><time>2026-04-10T22:25:51.000Z</time></trkpt>
        <trkpt lat="29.244109" lon="103.771447"><ele>464.2426</ele><time>2026-04-10T22:25:56.000Z</time></trkpt>
        <trkpt lat="29.244138" lon="103.771495"><ele>464.73444</ele><time>2026-04-10T22:26:01.000Z</time></trkpt>
        <trkpt lat="29.244165" lon="103.77155"><ele>465.45306</ele><time>2026-04-10T22:26:06.000Z</time></trkpt>
        <trkpt lat="29.244198" lon="103.771599"><ele>466.4672</ele><time>2026-04-10T22:26:12.000Z</time></trkpt>
        <trkpt lat="29.244221" lon="103.771656"><ele>467.14197</ele><time>2026-04-10T22:26:17.000Z</time></trkpt>
        <trkpt lat="29.244229" lon="103.771708"><ele>466.7824</ele><time>2026-04-10T22:26:23.000Z</time></trkpt>
        <trkpt lat="29.24422" lon="103.771768"><ele>467.0375</ele><time>2026-04-10T22:26:30.000Z</time></trkpt>
        <trkpt lat="29.244189" lon="103.771811"><ele>465.9059</ele><time>2026-04-10T22:26:36.000Z</time></trkpt>
        <trkpt lat="29.24415" lon="103.771842"><ele>465.41495</ele><time>2026-04-10T22:26:42.000Z</time></trkpt>
        <trkpt lat="29.24412" lon="103.771883"><ele>465.62738</ele><time>2026-04-10T22:26:48.000Z</time></trkpt>
        <trkpt lat="29.244104" lon="103.771936"><ele>465.98642</ele><time>2026-04-10T22:26:54.000Z</time></trkpt>
        <trkpt lat="29.244102" lon="103.771989"><ele>465.87982</ele><time>2026-04-10T22:27:00.000Z</time></trkpt>
        <trkpt lat="29.244098" lon="103.772046"><ele>466.23975</ele><time>2026-04-10T22:27:07.000Z</time></trkpt>
        <trkpt lat="29.244111" lon="103.772096"><ele>466.66992</ele><time>2026-04-10T22:27:12.000Z</time></trkpt>
        <trkpt lat="29.244117" lon="103.772151"><ele>467.98004</ele><time>2026-04-10T22:27:19.000Z</time></trkpt>
        <trkpt lat="29.244111" lon="103.772211"><ele>467.9471</ele><time>2026-04-10T22:27:23.000Z</time></trkpt>
        <trkpt lat="29.244113" lon="103.772263"><ele>469.62213</ele><time>2026-04-10T22:27:47.000Z</time></trkpt>
        <trkpt lat="29.244147" lon="103.772312"><ele>471.04358</ele><time>2026-04-10T22:27:55.000Z</time></trkpt>
        <trkpt lat="29.244128" lon="103.772367"><ele>471.19638</ele><time>2026-04-10T22:28:20.000Z</time></trkpt>
        <trkpt lat="29.244131" lon="103.772425"><ele>472.40845</ele><time>2026-04-10T22:28:26.000Z</time></trkpt>
        <trkpt lat="29.244141" lon="103.772482"><ele>472.77597</ele><time>2026-04-10T22:28:31.000Z</time></trkpt>
        <trkpt lat="29.244143" lon="103.772539"><ele>473.25528</ele><time>2026-04-10T22:28:36.000Z</time></trkpt>
        <trkpt lat="29.244139" lon="103.772596"><ele>473.6883</ele><time>2026-04-10T22:28:43.000Z</time></trkpt>
        <trkpt lat="29.244144" lon="103.772651"><ele>475.5188</ele><time>2026-04-10T22:28:49.000Z</time></trkpt>
        <trkpt lat="29.244154" lon="103.772708"><ele>476.36362</ele><time>2026-04-10T22:28:55.000Z</time></trkpt>
        <trkpt lat="29.244155" lon="103.772765"><ele>476.4651</ele><time>2026-04-10T22:29:02.000Z</time></trkpt>
        <trkpt lat="29.244151" lon="103.772822"><ele>477.65637</ele><time>2026-04-10T22:29:07.000Z</time></trkpt>
        <trkpt lat="29.244162" lon="103.772877"><ele>479.1322</ele><time>2026-04-10T22:29:11.000Z</time></trkpt>
        <trkpt lat="29.244157" lon="103.772929"><ele>480.3945</ele><time>2026-04-10T22:29:15.000Z</time></trkpt>
        <trkpt lat="29.244154" lon="103.772989"><ele>482.12485</ele><time>2026-04-10T22:29:20.000Z</time></trkpt>
        <trkpt lat="29.244134" lon="103.773039"><ele>483.67606</ele><time>2026-04-10T22:29:25.000Z</time></trkpt>
        <trkpt lat="29.244124" lon="103.773103"><ele>484.8041</ele><time>2026-04-10T22:29:30.000Z</time></trkpt>
        <trkpt lat="29.24411" lon="103.773163"><ele>485.74664</ele><time>2026-04-10T22:29:36.000Z</time></trkpt>
        <trkpt lat="29.244125" lon="103.773218"><ele>486.8957</ele><time>2026-04-10T22:29:41.000Z</time></trkpt>
        <trkpt lat="29.244112" lon="103.773269"><ele>487.29688</ele><time>2026-04-10T22:29:46.000Z</time></trkpt>
        <trkpt lat="29.244134" lon="103.77332"><ele>489.08878</ele><time>2026-04-10T22:29:53.000Z</time></trkpt>
        <trkpt lat="29.24414" lon="103.773378"><ele>489.89896</ele><time>2026-04-10T22:29:58.000Z</time></trkpt>
        <trkpt lat="29.244114" lon="103.773429"><ele>490.13828</ele><time>2026-04-10T22:30:03.000Z</time></trkpt>
        <trkpt lat="29.244077" lon="103.773478"><ele>490.90176</ele><time>2026-04-10T22:30:09.000Z</time></trkpt>
        <trkpt lat="29.244057" lon="103.773534"><ele>490.74457</ele><time>2026-04-10T22:30:14.000Z</time></trkpt>
        <trkpt lat="29.244013" lon="103.773565"><ele>490.86035</ele><time>2026-04-10T22:30:19.000Z</time></trkpt>
        <trkpt lat="29.243985" lon="103.773615"><ele>491.41174</ele><time>2026-04-10T22:30:24.000Z</time></trkpt>
        <trkpt lat="29.243952" lon="103.773656"><ele>492.03976</ele><time>2026-04-10T22:30:28.000Z</time></trkpt>
        <trkpt lat="29.243929" lon="103.773705"><ele>492.264</ele><time>2026-04-10T22:30:34.000Z</time></trkpt>
        <trkpt lat="29.243911" lon="103.773762"><ele>492.52405</ele><time>2026-04-10T22:30:41.000Z</time></trkpt>
        <trkpt lat="29.243889" lon="103.773816"><ele>492.64124</ele><time>2026-04-10T22:30:46.000Z</time></trkpt>
        <trkpt lat="29.243862" lon="103.773867"><ele>492.9975</ele><time>2026-04-10T22:30:51.000Z</time></trkpt>
        <trkpt lat="29.243848" lon="103.773919"><ele>493.30573</ele><time>2026-04-10T22:30:56.000Z</time></trkpt>
        <trkpt lat="29.243837" lon="103.773982"><ele>493.96317</ele><time>2026-04-10T22:31:02.000Z</time></trkpt>
        <trkpt lat="29.243851" lon="103.774035"><ele>493.13562</ele><time>2026-04-10T22:31:06.000Z</time></trkpt>
        <trkpt lat="29.243873" lon="103.774083"><ele>493.29813</ele><time>2026-04-10T22:31:26.000Z</time></trkpt>
        <trkpt lat="29.243832" lon="103.774104"><ele>493.14542</ele><time>2026-04-10T22:31:49.000Z</time></trkpt>
        <trkpt lat="29.243804" lon="103.774154"><ele>492.37015</ele><time>2026-04-10T22:32:27.000Z</time></trkpt>
        <trkpt lat="29.243778" lon="103.774203"><ele>492.4962</ele><time>2026-04-10T22:32:35.000Z</time></trkpt>
        <trkpt lat="29.243781" lon="103.774256"><ele>492.53085</ele><time>2026-04-10T22:32:42.000Z</time></trkpt>
        <trkpt lat="29.243771" lon="103.774307"><ele>491.9554</ele><time>2026-04-10T22:32:48.000Z</time></trkpt>
        <trkpt lat="29.243771" lon="103.774361"><ele>492.03165</ele><time>2026-04-10T22:32:52.000Z</time></trkpt>
        <trkpt lat="29.243756" lon="103.774422"><ele>490.80844</ele><time>2026-04-10T22:32:59.000Z</time></trkpt>
        <trkpt lat="29.243743" lon="103.774478"><ele>489.93616</ele><time>2026-04-10T22:33:04.000Z</time></trkpt>
        <trkpt lat="29.243723" lon="103.774524"><ele>488.62604</ele><time>2026-04-10T22:33:09.000Z</time></trkpt>
        <trkpt lat="29.243708" lon="103.774583"><ele>488.51065</ele><time>2026-04-10T22:33:15.000Z</time></trkpt>
        <trkpt lat="29.243696" lon="103.774643"><ele>487.75983</ele><time>2026-04-10T22:33:21.000Z</time></trkpt>
        <trkpt lat="29.243684" lon="103.774698"><ele>487.0935</ele><time>2026-04-10T22:33:26.000Z</time></trkpt>
        <trkpt lat="29.243679" lon="103.774759"><ele>486.44162</ele><time>2026-04-10T22:33:32.000Z</time></trkpt>
        <trkpt lat="29.243683" lon="103.774817"><ele>486.0131</ele><time>2026-04-10T22:33:37.000Z</time></trkpt>
        <trkpt lat="29.243671" lon="103.774875"><ele>484.85358</ele><time>2026-04-10T22:33:42.000Z</time></trkpt>
        <trkpt lat="29.243674" lon="103.774933"><ele>483.87668</ele><time>2026-04-10T22:33:49.000Z</time></trkpt>
        <trkpt lat="29.243666" lon="103.774986"><ele>483.42984</ele><time>2026-04-10T22:33:55.000Z</time></trkpt>
        <trkpt lat="29.243678" lon="103.77504"><ele>482.9719</ele><time>2026-04-10T22:34:00.000Z</time></trkpt>
        <trkpt lat="29.243675" lon="103.7751"><ele>481.86182</ele><time>2026-04-10T22:34:06.000Z</time></trkpt>
        <trkpt lat="29.243663" lon="103.775152"><ele>481.18713</ele><time>2026-04-10T22:34:11.000Z</time></trkpt>
        <trkpt lat="29.243637" lon="103.775203"><ele>480.23868</ele><time>2026-04-10T22:34:16.000Z</time></trkpt>
        <trkpt lat="29.243615" lon="103.775259"><ele>479.57156</ele><time>2026-04-10T22:34:23.000Z</time></trkpt>
        <trkpt lat="29.243577" lon="103.775293"><ele>479.46014</ele><time>2026-04-10T22:34:35.000Z</time></trkpt>
        <trkpt lat="29.243537" lon="103.775328"><ele>479.90427</ele><time>2026-04-10T22:34:41.000Z</time></trkpt>
        <trkpt lat="29.2435" lon="103.77536"><ele>480.4324</ele><time>2026-04-10T22:34:46.000Z</time></trkpt>
        <trkpt lat="29.243471" lon="103.775407"><ele>481.4809</ele><time>2026-04-10T22:34:50.000Z</time></trkpt>
        <trkpt lat="29.243425" lon="103.775428"><ele>481.28888</ele><time>2026-04-10T22:34:56.000Z</time></trkpt>
        <trkpt lat="29.243381" lon="103.775441"><ele>481.45178</ele><time>2026-04-10T22:35:00.000Z</time></trkpt>
        <trkpt lat="29.24334" lon="103.775473"><ele>482.13702</ele><time>2026-04-10T22:35:05.000Z</time></trkpt>
        <trkpt lat="29.243329" lon="103.775528"><ele>482.44556</ele><time>2026-04-10T22:35:14.000Z</time></trkpt>
        <trkpt lat="29.243307" lon="103.77558"><ele>482.46487</ele><time>2026-04-10T22:35:19.000Z</time></trkpt>
        <trkpt lat="29.243343" lon="103.775665"><ele>483.00647</ele><time>2026-04-10T22:35:45.000Z</time></trkpt>
        <trkpt lat="29.243392" lon="103.775667"><ele>482.53024</ele><time>2026-04-10T22:35:50.000Z</time></trkpt>
        <trkpt lat="29.24344" lon="103.775652"><ele>482.35297</ele><time>2026-04-10T22:35:57.000Z</time></trkpt>
        <trkpt lat="29.243489" lon="103.775651"><ele>481.65463</ele><time>2026-04-10T22:36:02.000Z</time></trkpt>
        <trkpt lat="29.243536" lon="103.775641"><ele>480.57968</ele><time>2026-04-10T22:36:09.000Z</time></trkpt>
        <trkpt lat="29.243585" lon="103.775652"><ele>479.64832</ele><time>2026-04-10T22:36:15.000Z</time></trkpt>
        <trkpt lat="29.243629" lon="103.775669"><ele>479.19595</ele><time>2026-04-10T22:36:24.000Z</time></trkpt>
        <trkpt lat="29.243679" lon="103.775701"><ele>479.03894</ele><time>2026-04-10T22:36:30.000Z</time></trkpt>
        <trkpt lat="29.243719" lon="103.77574"><ele>479.06494</ele><time>2026-04-10T22:36:35.000Z</time></trkpt>
        <trkpt lat="29.243755" lon="103.775772"><ele>478.70395</ele><time>2026-04-10T22:36:40.000Z</time></trkpt>
        <trkpt lat="29.243805" lon="103.77581"><ele>478.73355</ele><time>2026-04-10T22:36:46.000Z</time></trkpt>
        <trkpt lat="29.243844" lon="103.775847"><ele>478.48175</ele><time>2026-04-10T22:36:52.000Z</time></trkpt>
        <trkpt lat="29.243888" lon="103.775837"><ele>478.86365</ele><time>2026-04-10T22:36:59.000Z</time></trkpt>
        <trkpt lat="29.243934" lon="103.775881"><ele>478.9243</ele><time>2026-04-10T22:37:04.000Z</time></trkpt>
        <trkpt lat="29.243972" lon="103.775923"><ele>478.59293</ele><time>2026-04-10T22:37:09.000Z</time></trkpt>
        <trkpt lat="29.244007" lon="103.775961"><ele>478.99796</ele><time>2026-04-10T22:37:14.000Z</time></trkpt>
        <trkpt lat="29.244055" lon="103.775984"><ele>479.97653</ele><time>2026-04-10T22:37:20.000Z</time></trkpt>
        <trkpt lat="29.244099" lon="103.776001"><ele>480.10324</ele><time>2026-04-10T22:37:25.000Z</time></trkpt>
        <trkpt lat="29.244149" lon="103.77601"><ele>479.3122</ele><time>2026-04-10T22:37:29.000Z</time></trkpt>
        <trkpt lat="29.244194" lon="103.776007"><ele>478.9428</ele><time>2026-04-10T22:37:33.000Z</time></trkpt>
        <trkpt lat="29.244224" lon="103.776054"><ele>478.09885</ele><time>2026-04-10T22:37:42.000Z</time></trkpt>
        <trkpt lat="29.24427" lon="103.776055"><ele>478.20526</ele><time>2026-04-10T22:37:47.000Z</time></trkpt>
        <trkpt lat="29.244315" lon="103.776078"><ele>477.80283</ele><time>2026-04-10T22:37:54.000Z</time></trkpt>
        <trkpt lat="29.244348" lon="103.776116"><ele>478.3404</ele><time>2026-04-10T22:38:00.000Z</time></trkpt>
        <trkpt lat="29.244364" lon="103.776173"><ele>478.94443</ele><time>2026-04-10T22:38:07.000Z</time></trkpt>
        <trkpt lat="29.244377" lon="103.776232"><ele>478.31058</ele><time>2026-04-10T22:38:11.000Z</time></trkpt>
        <trkpt lat="29.244405" lon="103.776281"><ele>478.84003</ele><time>2026-04-10T22:38:18.000Z</time></trkpt>
        <trkpt lat="29.244418" lon="103.776337"><ele>479.1289</ele><time>2026-04-10T22:38:24.000Z</time></trkpt>
        <trkpt lat="29.24445" lon="103.776377"><ele>479.19366</ele><time>2026-04-10T22:38:29.000Z</time></trkpt>
        <trkpt lat="29.244483" lon="103.776415"><ele>478.95767</ele><time>2026-04-10T22:38:34.000Z</time></trkpt>
        <trkpt lat="29.244506" lon="103.77646"><ele>479.2581</ele><time>2026-04-10T22:38:39.000Z</time></trkpt>
        <trkpt lat="29.244551" lon="103.776504"><ele>479.751</ele><time>2026-04-10T22:38:43.000Z</time></trkpt>
        <trkpt lat="29.244569" lon="103.776553"><ele>478.02798</ele><time>2026-04-10T22:38:49.000Z</time></trkpt>
        <trkpt lat="29.244602" lon="103.776606"><ele>477.4776</ele><time>2026-04-10T22:38:56.000Z</time></trkpt>
        <trkpt lat="29.244585" lon="103.776678"><ele>477.492</ele><time>2026-04-10T22:39:03.000Z</time></trkpt>
        <trkpt lat="29.244607" lon="103.776724"><ele>476.6906</ele><time>2026-04-10T22:39:11.000Z</time></trkpt>
        <trkpt lat="29.24461" lon="103.776777"><ele>475.7902</ele><time>2026-04-10T22:39:27.000Z</time></trkpt>
        <trkpt lat="29.244645" lon="103.776811"><ele>476.0067</ele><time>2026-04-10T22:39:32.000Z</time></trkpt>
        <trkpt lat="29.244648" lon="103.776865"><ele>474.59943</ele><time>2026-04-10T22:39:38.000Z</time></trkpt>
        <trkpt lat="29.244675" lon="103.776918"><ele>474.44785</ele><time>2026-04-10T22:39:43.000Z</time></trkpt>
        <trkpt lat="29.244696" lon="103.776966"><ele>473.22617</ele><time>2026-04-10T22:39:48.000Z</time></trkpt>
        <trkpt lat="29.244705" lon="103.777021"><ele>472.04095</ele><time>2026-04-10T22:39:53.000Z</time></trkpt>
        <trkpt lat="29.244699" lon="103.777077"><ele>471.43802</ele><time>2026-04-10T22:39:59.000Z</time></trkpt>
        <trkpt lat="29.2447" lon="103.777132"><ele>470.53116</ele><time>2026-04-10T22:40:05.000Z</time></trkpt>
        <trkpt lat="29.244721" lon="103.777184"><ele>470.74133</ele><time>2026-04-10T22:40:11.000Z</time></trkpt>
        <trkpt lat="29.24472" lon="103.777236"><ele>470.00323</ele><time>2026-04-10T22:40:19.000Z</time></trkpt>
        <trkpt lat="29.244733" lon="103.777298"><ele>469.80014</ele><time>2026-04-10T22:40:25.000Z</time></trkpt>
        <trkpt lat="29.24475" lon="103.777355"><ele>469.17685</ele><time>2026-04-10T22:40:32.000Z</time></trkpt>
        <trkpt lat="29.244774" lon="103.777406"><ele>467.87625</ele><time>2026-04-10T22:40:38.000Z</time></trkpt>
        <trkpt lat="29.244803" lon="103.777454"><ele>467.36108</ele><time>2026-04-10T22:40:44.000Z</time></trkpt>
        <trkpt lat="29.244837" lon="103.777497"><ele>466.6344</ele><time>2026-04-10T22:40:50.000Z</time></trkpt>
        <trkpt lat="29.244847" lon="103.777549"><ele>465.45776</ele><time>2026-04-10T22:40:57.000Z</time></trkpt>
        <trkpt lat="29.244843" lon="103.777606"><ele>464.494</ele><time>2026-04-10T22:41:05.000Z</time></trkpt>
        <trkpt lat="29.244848" lon="103.777662"><ele>463.61786</ele><time>2026-04-10T22:41:11.000Z</time></trkpt>
        <trkpt lat="29.244833" lon="103.777721"><ele>462.6167</ele><time>2026-04-10T22:41:19.000Z</time></trkpt>
        <trkpt lat="29.24483" lon="103.777778"><ele>462.1157</ele><time>2026-04-10T22:41:26.000Z</time></trkpt>
        <trkpt lat="29.244813" lon="103.777827"><ele>463.24478</ele><time>2026-04-10T22:41:32.000Z</time></trkpt>
        <trkpt lat="29.244786" lon="103.777877"><ele>465.69025</ele><time>2026-04-10T22:41:40.000Z</time></trkpt>
        <trkpt lat="29.244764" lon="103.777924"><ele>467.88437</ele><time>2026-04-10T22:41:46.000Z</time></trkpt>
        <trkpt lat="29.244738" lon="103.777973"><ele>470.1611</ele><time>2026-04-10T22:41:52.000Z</time></trkpt>
        <trkpt lat="29.244707" lon="103.778025"><ele>472.20755</ele><time>2026-04-10T22:41:58.000Z</time></trkpt>
        <trkpt lat="29.244676" lon="103.77807"><ele>474.37625</ele><time>2026-04-10T22:42:04.000Z</time></trkpt>
        <trkpt lat="29.244648" lon="103.778112"><ele>476.9417</ele><time>2026-04-10T22:42:10.000Z</time></trkpt>
        <trkpt lat="29.244611" lon="103.778145"><ele>478.2769</ele><time>2026-04-10T22:42:15.000Z</time></trkpt>
        <trkpt lat="29.244583" lon="103.778189"><ele>479.91708</ele><time>2026-04-10T22:42:20.000Z</time></trkpt>
        <trkpt lat="29.244545" lon="103.778224"><ele>481.87192</ele><time>2026-04-10T22:42:25.000Z</time></trkpt>
        <trkpt lat="29.244515" lon="103.778279"><ele>483.9316</ele><time>2026-04-10T22:42:31.000Z</time></trkpt>
        <trkpt lat="29.244483" lon="103.778324"><ele>486.4133</ele><time>2026-04-10T22:42:39.000Z</time></trkpt>
        <trkpt lat="29.244464" lon="103.778373"><ele>486.7822</ele><time>2026-04-10T22:42:46.000Z</time></trkpt>
        <trkpt lat="29.244445" lon="103.778422"><ele>487.0987</ele><time>2026-04-10T22:42:52.000Z</time></trkpt>
        <trkpt lat="29.244424" lon="103.778469"><ele>487.5295</ele><time>2026-04-10T22:42:59.000Z</time></trkpt>
        <trkpt lat="29.244394" lon="103.778512"><ele>488.45853</ele><time>2026-04-10T22:43:07.000Z</time></trkpt>
        <trkpt lat="29.244422" lon="103.778555"><ele>486.12762</ele><time>2026-04-10T22:47:44.000Z</time></trkpt>
        <trkpt lat="29.244474" lon="103.778547"><ele>484.87152</ele><time>2026-04-10T22:48:16.000Z</time></trkpt>
        <trkpt lat="29.244521" lon="103.778535"><ele>484.93652</ele><time>2026-04-10T22:48:23.000Z</time></trkpt>
        <trkpt lat="29.244534" lon="103.778458"><ele>485.40158</ele><time>2026-04-10T22:48:29.000Z</time></trkpt>
        <trkpt lat="29.244584" lon="103.778456"><ele>485.9744</ele><time>2026-04-10T22:48:33.000Z</time></trkpt>
        <trkpt lat="29.244628" lon="103.778432"><ele>484.5925</ele><time>2026-04-10T22:48:39.000Z</time></trkpt>
        <trkpt lat="29.244674" lon="103.77841"><ele>482.60934</ele><time>2026-04-10T22:48:45.000Z</time></trkpt>
        <trkpt lat="29.24472" lon="103.77839"><ele>481.35965</ele><time>2026-04-10T22:48:50.000Z</time></trkpt>
        <trkpt lat="29.244758" lon="103.778359"><ele>480.39008</ele><time>2026-04-10T22:48:56.000Z</time></trkpt>
        <trkpt lat="29.244808" lon="103.778344"><ele>479.26733</ele><time>2026-04-10T22:49:02.000Z</time></trkpt>
        <trkpt lat="29.244851" lon="103.778324"><ele>477.85693</ele><time>2026-04-10T22:49:07.000Z</time></trkpt>
        <trkpt lat="29.244888" lon="103.778283"><ele>477.27945</ele><time>2026-04-10T22:49:12.000Z</time></trkpt>
        <trkpt lat="29.244926" lon="103.778251"><ele>476.05777</ele><time>2026-04-10T22:49:16.000Z</time></trkpt>
        <trkpt lat="29.244964" lon="103.778218"><ele>474.0705</ele><time>2026-04-10T22:49:22.000Z</time></trkpt>
        <trkpt lat="29.245008" lon="103.778185"><ele>472.6524</ele><time>2026-04-10T22:49:28.000Z</time></trkpt>
        <trkpt lat="29.245058" lon="103.778167"><ele>470.81424</ele><time>2026-04-10T22:49:34.000Z</time></trkpt>
        <trkpt lat="29.24511" lon="103.778172"><ele>469.6119</ele><time>2026-04-10T22:49:40.000Z</time></trkpt>
        <trkpt lat="29.245161" lon="103.778181"><ele>468.6684</ele><time>2026-04-10T22:49:46.000Z</time></trkpt>
        <trkpt lat="29.245211" lon="103.77819"><ele>468.14136</ele><time>2026-04-10T22:49:51.000Z</time></trkpt>
        <trkpt lat="29.245249" lon="103.778222"><ele>468.68436</ele><time>2026-04-10T22:49:56.000Z</time></trkpt>
        <trkpt lat="29.245297" lon="103.77825"><ele>469.13666</ele><time>2026-04-10T22:50:03.000Z</time></trkpt>
        <trkpt lat="29.245334" lon="103.778294"><ele>468.6869</ele><time>2026-04-10T22:50:09.000Z</time></trkpt>
        <trkpt lat="29.245374" lon="103.778332"><ele>468.91547</ele><time>2026-04-10T22:50:14.000Z</time></trkpt>
        <trkpt lat="29.245409" lon="103.778372"><ele>469.14777</ele><time>2026-04-10T22:50:19.000Z</time></trkpt>
        <trkpt lat="29.245441" lon="103.778413"><ele>470.0298</ele><time>2026-04-10T22:50:24.000Z</time></trkpt>
        <trkpt lat="29.245475" lon="103.778458"><ele>471.47916</ele><time>2026-04-10T22:50:30.000Z</time></trkpt>
        <trkpt lat="29.245515" lon="103.778499"><ele>472.08563</ele><time>2026-04-10T22:50:35.000Z</time></trkpt>
        <trkpt lat="29.245559" lon="103.778537"><ele>472.3796</ele><time>2026-04-10T22:50:40.000Z</time></trkpt>
        <trkpt lat="29.245604" lon="103.77856"><ele>472.89127</ele><time>2026-04-10T22:50:44.000Z</time></trkpt>
        <trkpt lat="29.245655" lon="103.778588"><ele>472.07013</ele><time>2026-04-10T22:50:49.000Z</time></trkpt>
        <trkpt lat="29.2457" lon="103.778616"><ele>471.59796</ele><time>2026-04-10T22:50:54.000Z</time></trkpt>
        <trkpt lat="29.24574" lon="103.778641"><ele>471.19556</ele><time>2026-04-10T22:50:58.000Z</time></trkpt>
        <trkpt lat="29.245781" lon="103.778666"><ele>470.10327</ele><time>2026-04-10T22:51:02.000Z</time></trkpt>
        <trkpt lat="29.24583" lon="103.778689"><ele>469.868</ele><time>2026-04-10T22:51:07.000Z</time></trkpt>
        <trkpt lat="29.245863" lon="103.778727"><ele>468.79092</ele><time>2026-04-10T22:51:12.000Z</time></trkpt>
        <trkpt lat="29.245905" lon="103.778746"><ele>468.6693</ele><time>2026-04-10T22:51:16.000Z</time></trkpt>
        <trkpt lat="29.245946" lon="103.778785"><ele>467.82794</ele><time>2026-04-10T22:51:21.000Z</time></trkpt>
        <trkpt lat="29.245983" lon="103.778818"><ele>466.8809</ele><time>2026-04-10T22:51:25.000Z</time></trkpt>
        <trkpt lat="29.246018" lon="103.778855"><ele>466.17108</ele><time>2026-04-10T22:51:29.000Z</time></trkpt>
        <trkpt lat="29.246062" lon="103.778889"><ele>466.1739</ele><time>2026-04-10T22:51:34.000Z</time></trkpt>
        <trkpt lat="29.246114" lon="103.778903"><ele>464.49054</ele><time>2026-04-10T22:51:39.000Z</time></trkpt>
        <trkpt lat="29.246156" lon="103.778933"><ele>463.27686</ele><time>2026-04-10T22:51:45.000Z</time></trkpt>
        <trkpt lat="29.246208" lon="103.778943"><ele>462.05096</ele><time>2026-04-10T22:51:50.000Z</time></trkpt>
        <trkpt lat="29.246263" lon="103.778943"><ele>461.69403</ele><time>2026-04-10T22:51:55.000Z</time></trkpt>
        <trkpt lat="29.246303" lon="103.77897"><ele>461.59048</ele><time>2026-04-10T22:51:59.000Z</time></trkpt>
        <trkpt lat="29.24634" lon="103.778998"><ele>460.95242</ele><time>2026-04-10T22:52:03.000Z</time></trkpt>
        <trkpt lat="29.246378" lon="103.779041"><ele>460.45462</ele><time>2026-04-10T22:52:08.000Z</time></trkpt>
        <trkpt lat="29.246414" lon="103.779091"><ele>461.10486</ele><time>2026-04-10T22:52:13.000Z</time></trkpt>
        <trkpt lat="29.246455" lon="103.779145"><ele>461.67654</ele><time>2026-04-10T22:52:19.000Z</time></trkpt>
        <trkpt lat="29.246497" lon="103.779166"><ele>462.67715</ele><time>2026-04-10T22:52:24.000Z</time></trkpt>
        <trkpt lat="29.246553" lon="103.779158"><ele>462.94278</ele><time>2026-04-10T22:52:29.000Z</time></trkpt>
        <trkpt lat="29.246598" lon="103.779139"><ele>462.7683</ele><time>2026-04-10T22:52:35.000Z</time></trkpt>
        <trkpt lat="29.246643" lon="103.779122"><ele>463.16385</ele><time>2026-04-10T22:52:40.000Z</time></trkpt>
        <trkpt lat="29.246689" lon="103.779104"><ele>463.51047</ele><time>2026-04-10T22:52:46.000Z</time></trkpt>
        <trkpt lat="29.24674" lon="103.779093"><ele>463.65848</ele><time>2026-04-10T22:52:54.000Z</time></trkpt>
        <trkpt lat="29.246785" lon="103.779075"><ele>463.98706</ele><time>2026-04-10T22:53:01.000Z</time></trkpt>
        <trkpt lat="29.246838" lon="103.779068"><ele>464.28058</ele><time>2026-04-10T22:53:08.000Z</time></trkpt>
        <trkpt lat="29.246884" lon="103.779056"><ele>464.9368</ele><time>2026-04-10T22:53:13.000Z</time></trkpt>
        <trkpt lat="29.246933" lon="103.779053"><ele>465.31802</ele><time>2026-04-10T22:53:18.000Z</time></trkpt>
        <trkpt lat="29.246986" lon="103.779045"><ele>465.76285</ele><time>2026-04-10T22:53:25.000Z</time></trkpt>
        <trkpt lat="29.247014" lon="103.778999"><ele>465.63165</ele><time>2026-04-10T22:53:30.000Z</time></trkpt>
        <trkpt lat="29.247043" lon="103.778959"><ele>464.6032</ele><time>2026-04-10T22:53:36.000Z</time></trkpt>
        <trkpt lat="29.24708" lon="103.778927"><ele>464.21014</ele><time>2026-04-10T22:53:42.000Z</time></trkpt>
        <trkpt lat="29.247122" lon="103.778889"><ele>463.21988</ele><time>2026-04-10T22:53:49.000Z</time></trkpt>
        <trkpt lat="29.247164" lon="103.778856"><ele>462.54428</ele><time>2026-04-10T22:53:55.000Z</time></trkpt>
        <trkpt lat="29.247205" lon="103.778832"><ele>462.00842</ele><time>2026-04-10T22:54:01.000Z</time></trkpt>
        <trkpt lat="29.247247" lon="103.778801"><ele>462.46014</ele><time>2026-04-10T22:54:08.000Z</time></trkpt>
        <trkpt lat="29.247286" lon="103.778769"><ele>462.31335</ele><time>2026-04-10T22:54:14.000Z</time></trkpt>
        <trkpt lat="29.247326" lon="103.77874"><ele>463.14206</ele><time>2026-04-10T22:54:21.000Z</time></trkpt>
        <trkpt lat="29.247366" lon="103.778711"><ele>462.91177</ele><time>2026-04-10T22:54:28.000Z</time></trkpt>
        <trkpt lat="29.247401" lon="103.778676"><ele>463.06183</ele><time>2026-04-10T22:54:35.000Z</time></trkpt>
        <trkpt lat="29.247427" lon="103.778625"><ele>462.13147</ele><time>2026-04-10T22:54:44.000Z</time></trkpt>
        <trkpt lat="29.24746" lon="103.778586"><ele>461.37775</ele><time>2026-04-10T22:54:51.000Z</time></trkpt>
        <trkpt lat="29.247501" lon="103.778562"><ele>461.24542</ele><time>2026-04-10T22:55:00.000Z</time></trkpt>
        <trkpt lat="29.247538" lon="103.778524"><ele>462.64536</ele><time>2026-04-10T22:55:07.000Z</time></trkpt>
        <trkpt lat="29.247578" lon="103.778498"><ele>464.43875</ele><time>2026-04-10T22:55:14.000Z</time></trkpt>
        <trkpt lat="29.247621" lon="103.778484"><ele>465.519</ele><time>2026-04-10T22:55:20.000Z</time></trkpt>
        <trkpt lat="29.247665" lon="103.778457"><ele>466.961</ele><time>2026-04-10T22:55:27.000Z</time></trkpt>
        <trkpt lat="29.247712" lon="103.778449"><ele>467.8102</ele><time>2026-04-10T22:55:35.000Z</time></trkpt>
        <trkpt lat="29.247755" lon="103.778423"><ele>467.94928</ele><time>2026-04-10T22:55:41.000Z</time></trkpt>
        <trkpt lat="29.2478" lon="103.778395"><ele>468.4991</ele><time>2026-04-10T22:55:48.000Z</time></trkpt>
        <trkpt lat="29.247845" lon="103.778381"><ele>468.82498</ele><time>2026-04-10T22:55:54.000Z</time></trkpt>
        <trkpt lat="29.24789" lon="103.778356"><ele>469.35312</ele><time>2026-04-10T22:56:00.000Z</time></trkpt>
        <trkpt lat="29.247929" lon="103.778322"><ele>469.14508</ele><time>2026-04-10T22:56:07.000Z</time></trkpt>
        <trkpt lat="29.247972" lon="103.778301"><ele>469.20145</ele><time>2026-04-10T22:56:12.000Z</time></trkpt>
        <trkpt lat="29.248019" lon="103.778281"><ele>469.189</ele><time>2026-04-10T22:56:19.000Z</time></trkpt>
        <trkpt lat="29.248063" lon="103.778266"><ele>469.8172</ele><time>2026-04-10T22:56:24.000Z</time></trkpt>
        <trkpt lat="29.248107" lon="103.778253"><ele>469.64822</ele><time>2026-04-10T22:56:29.000Z</time></trkpt>
        <trkpt lat="29.248152" lon="103.778239"><ele>469.8117</ele><time>2026-04-10T22:56:33.000Z</time></trkpt>
        <trkpt lat="29.248199" lon="103.77821"><ele>470.2582</ele><time>2026-04-10T22:56:42.000Z</time></trkpt>
        <trkpt lat="29.248245" lon="103.778187"><ele>469.6445</ele><time>2026-04-10T22:56:50.000Z</time></trkpt>
        <trkpt lat="29.248292" lon="103.778178"><ele>469.77762</ele><time>2026-04-10T22:57:09.000Z</time></trkpt>
        <trkpt lat="29.248344" lon="103.778164"><ele>469.4782</ele><time>2026-04-10T22:57:16.000Z</time></trkpt>
        <trkpt lat="29.2484" lon="103.778176"><ele>469.49686</ele><time>2026-04-10T22:57:24.000Z</time></trkpt>
        <trkpt lat="29.248449" lon="103.778184"><ele>469.768</ele><time>2026-04-10T22:57:31.000Z</time></trkpt>
        <trkpt lat="29.248495" lon="103.778185"><ele>470.06793</ele><time>2026-04-10T22:57:36.000Z</time></trkpt>
        <trkpt lat="29.248545" lon="103.778168"><ele>469.54718</ele><time>2026-04-10T22:57:42.000Z</time></trkpt>
        <trkpt lat="29.248591" lon="103.778157"><ele>469.55634</ele><time>2026-04-10T22:57:47.000Z</time></trkpt>
        <trkpt lat="29.248637" lon="103.778123"><ele>468.8571</ele><time>2026-04-10T22:57:53.000Z</time></trkpt>
        <trkpt lat="29.248665" lon="103.778082"><ele>468.50104</ele><time>2026-04-10T22:57:59.000Z</time></trkpt>
        <trkpt lat="29.248694" lon="103.778038"><ele>468.51877</ele><time>2026-04-10T22:58:05.000Z</time></trkpt>
        <trkpt lat="29.248726" lon="103.77799"><ele>468.66995</ele><time>2026-04-10T22:58:11.000Z</time></trkpt>
        <trkpt lat="29.248743" lon="103.777936"><ele>469.00775</ele><time>2026-04-10T22:58:17.000Z</time></trkpt>
        <trkpt lat="29.24877" lon="103.777891"><ele>469.21274</ele><time>2026-04-10T22:58:26.000Z</time></trkpt>
        <trkpt lat="29.248801" lon="103.777842"><ele>469.41498</ele><time>2026-04-10T22:58:33.000Z</time></trkpt>
        <trkpt lat="29.248843" lon="103.777816"><ele>469.18362</ele><time>2026-04-10T22:58:47.000Z</time></trkpt>
        <trkpt lat="29.248871" lon="103.777775"><ele>469.0145</ele><time>2026-04-10T22:58:54.000Z</time></trkpt>
        <trkpt lat="29.2489" lon="103.777729"><ele>468.83188</ele><time>2026-04-10T22:59:03.000Z</time></trkpt>
        <trkpt lat="29.248951" lon="103.777719"><ele>469.09036</ele><time>2026-04-10T22:59:05.000Z</time></trkpt>
        <trkpt lat="29.248934" lon="103.777666"><ele>469.8949</ele><time>2026-04-10T22:59:13.000Z</time></trkpt>
        <trkpt lat="29.248966" lon="103.777618"><ele>469.19275</ele><time>2026-04-10T22:59:21.000Z</time></trkpt>
        <trkpt lat="29.249022" lon="103.777613"><ele>469.9076</ele><time>2026-04-10T22:59:30.000Z</time></trkpt>
        <trkpt lat="29.249061" lon="103.777576"><ele>470.45886</ele><time>2026-04-10T22:59:33.000Z</time></trkpt>
        <trkpt lat="29.24908" lon="103.777529"><ele>471.0584</ele><time>2026-04-10T22:59:40.000Z</time></trkpt>
        <trkpt lat="29.249099" lon="103.77748"><ele>470.91678</ele><time>2026-04-10T22:59:48.000Z</time></trkpt>
        <trkpt lat="29.249115" lon="103.777429"><ele>470.29648</ele><time>2026-04-10T22:59:54.000Z</time></trkpt>
        <trkpt lat="29.249199" lon="103.777396"><ele>469.43936</ele><time>2026-04-10T23:00:06.000Z</time></trkpt>
        <trkpt lat="29.249207" lon="103.777341"><ele>468.7975</ele><time>2026-04-10T23:00:12.000Z</time></trkpt>
        <trkpt lat="29.249352" lon="103.777295"><ele>468.88257</ele><time>2026-04-10T23:00:27.000Z</time></trkpt>
        <trkpt lat="29.249399" lon="103.777297"><ele>469.19702</ele><time>2026-04-10T23:00:34.000Z</time></trkpt>
        <trkpt lat="29.249447" lon="103.777303"><ele>470.47452</ele><time>2026-04-10T23:00:40.000Z</time></trkpt>
        <trkpt lat="29.249495" lon="103.777322"><ele>471.4498</ele><time>2026-04-10T23:00:50.000Z</time></trkpt>
        <trkpt lat="29.24956" lon="103.777345"><ele>471.60925</ele><time>2026-04-10T23:00:57.000Z</time></trkpt>
        <trkpt lat="29.249609" lon="103.777387"><ele>471.63</ele><time>2026-04-10T23:01:04.000Z</time></trkpt>
        <trkpt lat="29.249651" lon="103.777421"><ele>472.0302</ele><time>2026-04-10T23:01:12.000Z</time></trkpt>
        <trkpt lat="29.249685" lon="103.777476"><ele>471.9271</ele><time>2026-04-10T23:01:18.000Z</time></trkpt>
        <trkpt lat="29.249701" lon="103.777528"><ele>472.88586</ele><time>2026-04-10T23:01:26.000Z</time></trkpt>
        <trkpt lat="29.249708" lon="103.777593"><ele>473.867</ele><time>2026-04-10T23:01:33.000Z</time></trkpt>
        <trkpt lat="29.249746" lon="103.777623"><ele>475.07227</ele><time>2026-04-10T23:01:41.000Z</time></trkpt>
        <trkpt lat="29.249789" lon="103.777652"><ele>475.81284</ele><time>2026-04-10T23:01:49.000Z</time></trkpt>
        <trkpt lat="29.249795" lon="103.777698"><ele>476.58463</ele><time>2026-04-10T23:02:02.000Z</time></trkpt>
        <trkpt lat="29.249838" lon="103.777719"><ele>477.25125</ele><time>2026-04-10T23:02:09.000Z</time></trkpt>
        <trkpt lat="29.249882" lon="103.777751"><ele>477.46777</ele><time>2026-04-10T23:02:14.000Z</time></trkpt>
        <trkpt lat="29.25" lon="103.777766"><ele>477.33273</ele><time>2026-04-10T23:02:29.000Z</time></trkpt>
        <trkpt lat="29.250052" lon="103.777798"><ele>477.37595</ele><time>2026-04-10T23:02:36.000Z</time></trkpt>
        <trkpt lat="29.250097" lon="103.777828"><ele>477.13272</ele><time>2026-04-10T23:02:41.000Z</time></trkpt>
        <trkpt lat="29.250143" lon="103.777849"><ele>476.73846</ele><time>2026-04-10T23:02:47.000Z</time></trkpt>
        <trkpt lat="29.250185" lon="103.777894"><ele>477.12158</ele><time>2026-04-10T23:02:53.000Z</time></trkpt>
        <trkpt lat="29.250218" lon="103.777935"><ele>477.2143</ele><time>2026-04-10T23:03:01.000Z</time></trkpt>
        <trkpt lat="29.250263" lon="103.777947"><ele>476.4738</ele><time>2026-04-10T23:03:07.000Z</time></trkpt>
        <trkpt lat="29.250314" lon="103.777962"><ele>476.3963</ele><time>2026-04-10T23:03:16.000Z</time></trkpt>
        <trkpt lat="29.250366" lon="103.777977"><ele>475.4621</ele><time>2026-04-10T23:03:23.000Z</time></trkpt>
        <trkpt lat="29.25041" lon="103.777989"><ele>475.22015</ele><time>2026-04-10T23:03:30.000Z</time></trkpt>
        <trkpt lat="29.250454" lon="103.778013"><ele>474.42126</ele><time>2026-04-10T23:03:36.000Z</time></trkpt>
        <trkpt lat="29.250501" lon="103.778024"><ele>473.3074</ele><time>2026-04-10T23:03:50.000Z</time></trkpt>
        <trkpt lat="29.250538" lon="103.778064"><ele>472.04547</ele><time>2026-04-10T23:03:55.000Z</time></trkpt>
        <trkpt lat="29.250572" lon="103.778103"><ele>472.29837</ele><time>2026-04-10T23:03:59.000Z</time></trkpt>
        <trkpt lat="29.250601" lon="103.778147"><ele>472.74164</ele><time>2026-04-10T23:04:04.000Z</time></trkpt>
        <trkpt lat="29.250646" lon="103.77818"><ele>473.51102</ele><time>2026-04-10T23:04:09.000Z</time></trkpt>
        <trkpt lat="29.250683" lon="103.77821"><ele>473.87717</ele><time>2026-04-10T23:04:14.000Z</time></trkpt>
        <trkpt lat="29.250722" lon="103.778245"><ele>473.7035</ele><time>2026-04-10T23:04:19.000Z</time></trkpt>
        <trkpt lat="29.25076" lon="103.778279"><ele>473.87744</ele><time>2026-04-10T23:04:24.000Z</time></trkpt>
        <trkpt lat="29.250799" lon="103.778314"><ele>472.9978</ele><time>2026-04-10T23:04:29.000Z</time></trkpt>
        <trkpt lat="29.250832" lon="103.778351"><ele>472.83673</ele><time>2026-04-10T23:04:34.000Z</time></trkpt>
        <trkpt lat="29.250873" lon="103.778385"><ele>471.6407</ele><time>2026-04-10T23:04:39.000Z</time></trkpt>
        <trkpt lat="29.250921" lon="103.778402"><ele>469.08356</ele><time>2026-04-10T23:04:44.000Z</time></trkpt>
        <trkpt lat="29.250964" lon="103.778431"><ele>467.0096</ele><time>2026-04-10T23:04:49.000Z</time></trkpt>
        <trkpt lat="29.251012" lon="103.778453"><ele>464.19174</ele><time>2026-04-10T23:04:58.000Z</time></trkpt>
        <trkpt lat="29.251053" lon="103.778481"><ele>461.5935</ele><time>2026-04-10T23:05:04.000Z</time></trkpt>
        <trkpt lat="29.25109" lon="103.778514"><ele>460.07452</ele><time>2026-04-10T23:05:10.000Z</time></trkpt>
        <trkpt lat="29.251125" lon="103.778554"><ele>459.4597</ele><time>2026-04-10T23:05:15.000Z</time></trkpt>
        <trkpt lat="29.251157" lon="103.778593"><ele>459.26117</ele><time>2026-04-10T23:05:23.000Z</time></trkpt>
        <trkpt lat="29.251195" lon="103.778625"><ele>459.44025</ele><time>2026-04-10T23:05:29.000Z</time></trkpt>
        <trkpt lat="29.251238" lon="103.778654"><ele>459.99997</ele><time>2026-04-10T23:05:36.000Z</time></trkpt>
        <trkpt lat="29.251274" lon="103.778685"><ele>459.3171</ele><time>2026-04-10T23:05:41.000Z</time></trkpt>
        <trkpt lat="29.251306" lon="103.778723"><ele>458.60687</ele><time>2026-04-10T23:05:47.000Z</time></trkpt>
        <trkpt lat="29.251335" lon="103.778767"><ele>459.2578</ele><time>2026-04-10T23:05:53.000Z</time></trkpt>
        <trkpt lat="29.251359" lon="103.77882"><ele>460.20483</ele><time>2026-04-10T23:06:00.000Z</time></trkpt>
        <trkpt lat="29.251384" lon="103.778871"><ele>461.08353</ele><time>2026-04-10T23:06:07.000Z</time></trkpt>
        <trkpt lat="29.25141" lon="103.778921"><ele>463.25516</ele><time>2026-04-10T23:06:16.000Z</time></trkpt>
        <trkpt lat="29.251431" lon="103.778967"><ele>464.00134</ele><time>2026-04-10T23:06:24.000Z</time></trkpt>
        <trkpt lat="29.251447" lon="103.779027"><ele>465.29202</ele><time>2026-04-10T23:06:32.000Z</time></trkpt>
        <trkpt lat="29.251441" lon="103.779089"><ele>468.27216</ele><time>2026-04-10T23:06:42.000Z</time></trkpt>
        <trkpt lat="29.251437" lon="103.779145"><ele>459.41843</ele><time>2026-04-10T23:06:57.000Z</time></trkpt>
        <trkpt lat="29.251434" lon="103.7792"><ele>454.85672</ele><time>2026-04-10T23:07:06.000Z</time></trkpt>
        <trkpt lat="29.251473" lon="103.779246"><ele>453.42694</ele><time>2026-04-10T23:07:11.000Z</time></trkpt>
        <trkpt lat="29.251513" lon="103.77922"><ele>452.17438</ele><time>2026-04-10T23:07:19.000Z</time></trkpt>
        <trkpt lat="29.251513" lon="103.779163"><ele>449.07178</ele><time>2026-04-10T23:09:25.000Z</time></trkpt>
        <trkpt lat="29.251545" lon="103.779126"><ele>448.96658</ele><time>2026-04-10T23:09:34.000Z</time></trkpt>
        <trkpt lat="29.251592" lon="103.779115"><ele>450.02243</ele><time>2026-04-10T23:09:39.000Z</time></trkpt>
        <trkpt lat="29.251606" lon="103.779064"><ele>450.23193</ele><time>2026-04-10T23:09:45.000Z</time></trkpt>
        <trkpt lat="29.251647" lon="103.779042"><ele>450.3525</ele><time>2026-04-10T23:09:54.000Z</time></trkpt>
        <trkpt lat="29.251663" lon="103.778994"><ele>456.204</ele><time>2026-04-10T23:10:00.000Z</time></trkpt>
        <trkpt lat="29.25171" lon="103.778989"><ele>454.6087</ele><time>2026-04-10T23:10:08.000Z</time></trkpt>
        <trkpt lat="29.251763" lon="103.779006"><ele>457.36765</ele><time>2026-04-10T23:10:17.000Z</time></trkpt>
        <trkpt lat="29.251814" lon="103.778987"><ele>457.53586</ele><time>2026-04-10T23:10:21.000Z</time></trkpt>
        <trkpt lat="29.251867" lon="103.779006"><ele>455.5503</ele><time>2026-04-10T23:10:34.000Z</time></trkpt>
        <trkpt lat="29.251917" lon="103.779008"><ele>455.5834</ele><time>2026-04-10T23:10:39.000Z</time></trkpt>
        <trkpt lat="29.251955" lon="103.779041"><ele>455.5549</ele><time>2026-04-10T23:10:44.000Z</time></trkpt>
        <trkpt lat="29.251998" lon="103.779072"><ele>455.88623</ele><time>2026-04-10T23:10:48.000Z</time></trkpt>
        <trkpt lat="29.252041" lon="103.779101"><ele>455.84384</ele><time>2026-04-10T23:10:54.000Z</time></trkpt>
        <trkpt lat="29.252082" lon="103.779123"><ele>455.07153</ele><time>2026-04-10T23:11:01.000Z</time></trkpt>
        <trkpt lat="29.25213" lon="103.779146"><ele>455.12634</ele><time>2026-04-10T23:11:11.000Z</time></trkpt>
        <trkpt lat="29.252178" lon="103.779181"><ele>455.08365</ele><time>2026-04-10T23:11:19.000Z</time></trkpt>
        <trkpt lat="29.252227" lon="103.7792"><ele>454.57468</ele><time>2026-04-10T23:11:26.000Z</time></trkpt>
        <trkpt lat="29.252272" lon="103.779222"><ele>454.10193</ele><time>2026-04-10T23:11:33.000Z</time></trkpt>
        <trkpt lat="29.252311" lon="103.779254"><ele>453.20084</ele><time>2026-04-10T23:11:38.000Z</time></trkpt>
        <trkpt lat="29.25236" lon="103.779283"><ele>453.69894</ele><time>2026-04-10T23:11:44.000Z</time></trkpt>
        <trkpt lat="29.252382" lon="103.779335"><ele>454.67297</ele><time>2026-04-10T23:11:53.000Z</time></trkpt>
        <trkpt lat="29.252408" lon="103.779382"><ele>455.48077</ele><time>2026-04-10T23:11:59.000Z</time></trkpt>
        <trkpt lat="29.252437" lon="103.779427"><ele>456.75388</ele><time>2026-04-10T23:12:05.000Z</time></trkpt>
        <trkpt lat="29.252461" lon="103.77948"><ele>458.88892</ele><time>2026-04-10T23:12:12.000Z</time></trkpt>
        <trkpt lat="29.252507" lon="103.77952"><ele>461.2439</ele><time>2026-04-10T23:12:20.000Z</time></trkpt>
        <trkpt lat="29.252511" lon="103.779572"><ele>461.73495</ele><time>2026-04-10T23:12:25.000Z</time></trkpt>
        <trkpt lat="29.252534" lon="103.779626"><ele>462.89938</ele><time>2026-04-10T23:12:34.000Z</time></trkpt>
        <trkpt lat="29.252543" lon="103.779685"><ele>464.8402</ele><time>2026-04-10T23:12:41.000Z</time></trkpt>
        <trkpt lat="29.252569" lon="103.779741"><ele>466.4191</ele><time>2026-04-10T23:12:48.000Z</time></trkpt>
        <trkpt lat="29.252602" lon="103.779777"><ele>468.45734</ele><time>2026-04-10T23:12:53.000Z</time></trkpt>
        <trkpt lat="29.252625" lon="103.779827"><ele>471.54968</ele><time>2026-04-10T23:12:59.000Z</time></trkpt>
        <trkpt lat="29.252644" lon="103.779879"><ele>474.1582</ele><time>2026-04-10T23:13:04.000Z</time></trkpt>
        <trkpt lat="29.252666" lon="103.779925"><ele>477.66348</ele><time>2026-04-10T23:13:20.000Z</time></trkpt>
        <trkpt lat="29.252672" lon="103.779864"><ele>477.44586</ele><time>2026-04-10T23:13:53.000Z</time></trkpt>
        <trkpt lat="29.252679" lon="103.779919"><ele>475.8864</ele><time>2026-04-10T23:14:11.000Z</time></trkpt>
        <trkpt lat="29.25267" lon="103.779973"><ele>476.78903</ele><time>2026-04-10T23:14:17.000Z</time></trkpt>
        <trkpt lat="29.252657" lon="103.780027"><ele>478.76212</ele><time>2026-04-10T23:14:26.000Z</time></trkpt>
        <trkpt lat="29.252661" lon="103.780085"><ele>481.62656</ele><time>2026-04-10T23:14:38.000Z</time></trkpt>
        <trkpt lat="29.252666" lon="103.780138"><ele>484.31326</ele><time>2026-04-10T23:14:46.000Z</time></trkpt>
        <trkpt lat="29.252669" lon="103.780197"><ele>485.20718</ele><time>2026-04-10T23:14:54.000Z</time></trkpt>
        <trkpt lat="29.252673" lon="103.78025"><ele>487.59348</ele><time>2026-04-10T23:15:02.000Z</time></trkpt>
        <trkpt lat="29.25267" lon="103.780305"><ele>489.1368</ele><time>2026-04-10T23:15:10.000Z</time></trkpt>
        <trkpt lat="29.252666" lon="103.780357"><ele>491.0482</ele><time>2026-04-10T23:15:16.000Z</time></trkpt>
        <trkpt lat="29.252656" lon="103.780415"><ele>491.92255</ele><time>2026-04-10T23:15:24.000Z</time></trkpt>
        <trkpt lat="29.252662" lon="103.780469"><ele>493.66687</ele><time>2026-04-10T23:15:31.000Z</time></trkpt>
        <trkpt lat="29.252662" lon="103.780522"><ele>494.30188</ele><time>2026-04-10T23:15:38.000Z</time></trkpt>
        <trkpt lat="29.252667" lon="103.780578"><ele>494.7875</ele><time>2026-04-10T23:15:46.000Z</time></trkpt>
        <trkpt lat="29.252671" lon="103.780634"><ele>496.60458</ele><time>2026-04-10T23:15:52.000Z</time></trkpt>
        <trkpt lat="29.25268" lon="103.78069"><ele>498.0462</ele><time>2026-04-10T23:15:59.000Z</time></trkpt>
        <trkpt lat="29.252692" lon="103.780742"><ele>498.9963</ele><time>2026-04-10T23:16:06.000Z</time></trkpt>
        <trkpt lat="29.252709" lon="103.780795"><ele>498.57047</ele><time>2026-04-10T23:16:13.000Z</time></trkpt>
        <trkpt lat="29.25271" lon="103.78085"><ele>499.7282</ele><time>2026-04-10T23:16:24.000Z</time></trkpt>
        <trkpt lat="29.252693" lon="103.7809"><ele>499.74985</ele><time>2026-04-10T23:16:32.000Z</time></trkpt>
        <trkpt lat="29.252711" lon="103.780949"><ele>500.2793</ele><time>2026-04-10T23:16:41.000Z</time></trkpt>
        <trkpt lat="29.252718" lon="103.781"><ele>502.0176</ele><time>2026-04-10T23:16:58.000Z</time></trkpt>
        <trkpt lat="29.25271" lon="103.781065"><ele>501.81143</ele><time>2026-04-10T23:17:04.000Z</time></trkpt>
        <trkpt lat="29.252705" lon="103.781118"><ele>503.09824</ele><time>2026-04-10T23:17:11.000Z</time></trkpt>
        <trkpt lat="29.252685" lon="103.781164"><ele>505.43948</ele><time>2026-04-10T23:17:19.000Z</time></trkpt>
        <trkpt lat="29.252708" lon="103.781209"><ele>506.16776</ele><time>2026-04-10T23:17:30.000Z</time></trkpt>
        <trkpt lat="29.252745" lon="103.78124"><ele>506.43604</ele><time>2026-04-10T23:17:36.000Z</time></trkpt>
        <trkpt lat="29.252738" lon="103.781295"><ele>507.7243</ele><time>2026-04-10T23:17:43.000Z</time></trkpt>
        <trkpt lat="29.25275" lon="103.781366"><ele>508.7031</ele><time>2026-04-10T23:17:52.000Z</time></trkpt>
        <trkpt lat="29.252718" lon="103.781405"><ele>510.37695</ele><time>2026-04-10T23:18:07.000Z</time></trkpt>
        <trkpt lat="29.252695" lon="103.781454"><ele>511.07434</ele><time>2026-04-10T23:18:17.000Z</time></trkpt>
        <trkpt lat="29.252666" lon="103.781497"><ele>513.09406</ele><time>2026-04-10T23:18:33.000Z</time></trkpt>
        <trkpt lat="29.252653" lon="103.781548"><ele>512.49054</ele><time>2026-04-10T23:18:52.000Z</time></trkpt>
        <trkpt lat="29.252633" lon="103.781594"><ele>513.01935</ele><time>2026-04-10T23:19:07.000Z</time></trkpt>
        <trkpt lat="29.252612" lon="103.781641"><ele>514.33295</ele><time>2026-04-10T23:19:17.000Z</time></trkpt>
        <trkpt lat="29.25262" lon="103.781695"><ele>513.9569</ele><time>2026-04-10T23:19:26.000Z</time></trkpt>
        <trkpt lat="29.252591" lon="103.781736"><ele>514.88043</ele><time>2026-04-10T23:19:36.000Z</time></trkpt>
        <trkpt lat="29.252568" lon="103.781784"><ele>515.44604</ele><time>2026-04-10T23:19:47.000Z</time></trkpt>
        <trkpt lat="29.252565" lon="103.781842"><ele>516.0613</ele><time>2026-04-10T23:19:53.000Z</time></trkpt>
        <trkpt lat="29.252562" lon="103.781895"><ele>516.2973</ele><time>2026-04-10T23:20:02.000Z</time></trkpt>
        <trkpt lat="29.252572" lon="103.781951"><ele>516.30365</ele><time>2026-04-10T23:20:15.000Z</time></trkpt>
        <trkpt lat="29.252556" lon="103.782004"><ele>516.6536</ele><time>2026-04-10T23:20:55.000Z</time></trkpt>
        <trkpt lat="29.252547" lon="103.782057"><ele>516.7391</ele><time>2026-04-10T23:21:18.000Z</time></trkpt>
        <trkpt lat="29.252548" lon="103.782117"><ele>517.1031</ele><time>2026-04-10T23:21:28.000Z</time></trkpt>
        <trkpt lat="29.252527" lon="103.782167"><ele>517.42664</ele><time>2026-04-10T23:21:42.000Z</time></trkpt>
        <trkpt lat="29.252535" lon="103.782218"><ele>517.1327</ele><time>2026-04-10T23:21:49.000Z</time></trkpt>
        <trkpt lat="29.252528" lon="103.782274"><ele>517.62506</ele><time>2026-04-10T23:22:07.000Z</time></trkpt>
        <trkpt lat="29.252512" lon="103.78233"><ele>517.5018</ele><time>2026-04-10T23:22:22.000Z</time></trkpt>
        <trkpt lat="29.252465" lon="103.782308"><ele>516.63367</ele><time>2026-04-10T23:22:38.000Z</time></trkpt>
        <trkpt lat="29.252495" lon="103.782358"><ele>517.34174</ele><time>2026-04-10T23:22:59.000Z</time></trkpt>
        <trkpt lat="29.252498" lon="103.782412"><ele>517.58185</ele><time>2026-04-10T23:23:10.000Z</time></trkpt>
        <trkpt lat="29.252502" lon="103.782464"><ele>517.5461</ele><time>2026-04-10T23:23:27.000Z</time></trkpt>
        <trkpt lat="29.252472" lon="103.782508"><ele>516.9309</ele><time>2026-04-10T23:23:39.000Z</time></trkpt>
        <trkpt lat="29.25245" lon="103.782556"><ele>517.67236</ele><time>2026-04-10T23:23:53.000Z</time></trkpt>
        <trkpt lat="29.252455" lon="103.782607"><ele>517.8278</ele><time>2026-04-10T23:24:05.000Z</time></trkpt>
        <trkpt lat="29.252431" lon="103.782652"><ele>517.8398</ele><time>2026-04-10T23:24:16.000Z</time></trkpt>
        <trkpt lat="29.252409" lon="103.782697"><ele>518.28925</ele><time>2026-04-10T23:24:30.000Z</time></trkpt>
        <trkpt lat="29.252389" lon="103.782752"><ele>517.75977</ele><time>2026-04-10T23:24:36.000Z</time></trkpt>
        <trkpt lat="29.252348" lon="103.782788"><ele>517.13525</ele><time>2026-04-10T23:24:40.000Z</time></trkpt>
        <trkpt lat="29.252358" lon="103.782854"><ele>517.1988</ele><time>2026-04-10T23:25:02.000Z</time></trkpt>
        <trkpt lat="29.252336" lon="103.782906"><ele>516.956</ele><time>2026-04-10T23:25:18.000Z</time></trkpt>
        <trkpt lat="29.252287" lon="103.782919"><ele>516.4793</ele><time>2026-04-10T23:25:28.000Z</time></trkpt>
        <trkpt lat="29.252277" lon="103.782972"><ele>516.88715</ele><time>2026-04-10T23:26:00.000Z</time></trkpt>
        <trkpt lat="29.252253" lon="103.783019"><ele>516.82117</ele><time>2026-04-10T23:26:09.000Z</time></trkpt>
        <trkpt lat="29.252243" lon="103.783073"><ele>516.81866</ele><time>2026-04-10T23:26:22.000Z</time></trkpt>
        <trkpt lat="29.25223" lon="103.783122"><ele>517.6862</ele><time>2026-04-10T23:26:35.000Z</time></trkpt>
        <trkpt lat="29.252212" lon="103.783171"><ele>520.009</ele><time>2026-04-10T23:26:44.000Z</time></trkpt>
        <trkpt lat="29.252186" lon="103.783223"><ele>521.74176</ele><time>2026-04-10T23:26:59.000Z</time></trkpt>
        <trkpt lat="29.252203" lon="103.783275"><ele>521.48334</ele><time>2026-04-10T23:27:09.000Z</time></trkpt>
        <trkpt lat="29.252195" lon="103.783328"><ele>523.2188</ele><time>2026-04-10T23:27:21.000Z</time></trkpt>
        <trkpt lat="29.252191" lon="103.783379"><ele>524.9512</ele><time>2026-04-10T23:27:31.000Z</time></trkpt>
        <trkpt lat="29.252194" lon="103.783432"><ele>527.46155</ele><time>2026-04-10T23:27:42.000Z</time></trkpt>
        <trkpt lat="29.252192" lon="103.78349"><ele>527.8164</ele><time>2026-04-10T23:27:50.000Z</time></trkpt>
        <trkpt lat="29.252187" lon="103.783544"><ele>528.3022</ele><time>2026-04-10T23:28:01.000Z</time></trkpt>
        <trkpt lat="29.252177" lon="103.783597"><ele>529.9116</ele><time>2026-04-10T23:28:10.000Z</time></trkpt>
        <trkpt lat="29.252165" lon="103.783652"><ele>531.6775</ele><time>2026-04-10T23:28:28.000Z</time></trkpt>
        <trkpt lat="29.252141" lon="103.783699"><ele>533.5747</ele><time>2026-04-10T23:28:39.000Z</time></trkpt>
        <trkpt lat="29.252152" lon="103.783753"><ele>534.6069</ele><time>2026-04-10T23:28:48.000Z</time></trkpt>
        <trkpt lat="29.252189" lon="103.783786"><ele>535.4236</ele><time>2026-04-10T23:29:00.000Z</time></trkpt>
        <trkpt lat="29.252155" lon="103.783822"><ele>535.1312</ele><time>2026-04-10T23:29:36.000Z</time></trkpt>
        <trkpt lat="29.252107" lon="103.783812"><ele>536.0214</ele><time>2026-04-10T23:30:11.000Z</time></trkpt>
        <trkpt lat="29.25206" lon="103.783843"><ele>536.18427</ele><time>2026-04-10T23:31:00.000Z</time></trkpt>
        <trkpt lat="29.252032" lon="103.783886"><ele>538.13934</ele><time>2026-04-10T23:31:09.000Z</time></trkpt>
        <trkpt lat="29.252" lon="103.783934"><ele>539.0345</ele><time>2026-04-10T23:31:16.000Z</time></trkpt>
        <trkpt lat="29.251965" lon="103.783972"><ele>541.2691</ele><time>2026-04-10T23:31:23.000Z</time></trkpt>
        <trkpt lat="29.251927" lon="103.784014"><ele>543.3269</ele><time>2026-04-10T23:31:31.000Z</time></trkpt>
        <trkpt lat="29.251882" lon="103.784043"><ele>544.0453</ele><time>2026-04-10T23:31:42.000Z</time></trkpt>
        <trkpt lat="29.251835" lon="103.784054"><ele>544.0803</ele><time>2026-04-10T23:31:52.000Z</time></trkpt>
        <trkpt lat="29.251836" lon="103.78411"><ele>545.30096</ele><time>2026-04-10T23:31:57.000Z</time></trkpt>
        <trkpt lat="29.251782" lon="103.784104"><ele>545.907</ele><time>2026-04-10T23:32:04.000Z</time></trkpt>
        <trkpt lat="29.251732" lon="103.784098"><ele>545.41943</ele><time>2026-04-10T23:32:10.000Z</time></trkpt>
        <trkpt lat="29.251687" lon="103.784079"><ele>545.46606</ele><time>2026-04-10T23:32:16.000Z</time></trkpt>
        <trkpt lat="29.251638" lon="103.784064"><ele>545.3716</ele><time>2026-04-10T23:32:22.000Z</time></trkpt>
        <trkpt lat="29.251589" lon="103.784049"><ele>544.9647</ele><time>2026-04-10T23:32:29.000Z</time></trkpt>
        <trkpt lat="29.251544" lon="103.784038"><ele>543.9172</ele><time>2026-04-10T23:32:34.000Z</time></trkpt>
        <trkpt lat="29.251495" lon="103.784026"><ele>543.17084</ele><time>2026-04-10T23:32:41.000Z</time></trkpt>
        <trkpt lat="29.25144" lon="103.784013"><ele>541.6723</ele><time>2026-04-10T23:32:50.000Z</time></trkpt>
        <trkpt lat="29.251394" lon="103.784011"><ele>541.3267</ele><time>2026-04-10T23:32:54.000Z</time></trkpt>
        <trkpt lat="29.251338" lon="103.78403"><ele>541.3753</ele><time>2026-04-10T23:33:00.000Z</time></trkpt>
        <trkpt lat="29.251296" lon="103.784054"><ele>541.52924</ele><time>2026-04-10T23:33:05.000Z</time></trkpt>
        <trkpt lat="29.25126" lon="103.784094"><ele>540.55566</ele><time>2026-04-10T23:33:10.000Z</time></trkpt>
        <trkpt lat="29.251215" lon="103.784126"><ele>539.8576</ele><time>2026-04-10T23:33:15.000Z</time></trkpt>
        <trkpt lat="29.251178" lon="103.784163"><ele>539.7456</ele><time>2026-04-10T23:33:20.000Z</time></trkpt>
        <trkpt lat="29.251147" lon="103.784211"><ele>539.7764</ele><time>2026-04-10T23:33:25.000Z</time></trkpt>
        <trkpt lat="29.251123" lon="103.784258"><ele>539.07446</ele><time>2026-04-10T23:33:29.000Z</time></trkpt>
        <trkpt lat="29.251101" lon="103.78431"><ele>538.6389</ele><time>2026-04-10T23:33:34.000Z</time></trkpt>
        <trkpt lat="29.251093" lon="103.784363"><ele>538.2381</ele><time>2026-04-10T23:33:39.000Z</time></trkpt>
        <trkpt lat="29.251086" lon="103.784417"><ele>537.56335</ele><time>2026-04-10T23:33:44.000Z</time></trkpt>
        <trkpt lat="29.251091" lon="103.784474"><ele>536.67926</ele><time>2026-04-10T23:33:49.000Z</time></trkpt>
        <trkpt lat="29.251082" lon="103.784533"><ele>535.74774</ele><time>2026-04-10T23:33:54.000Z</time></trkpt>
        <trkpt lat="29.251085" lon="103.784589"><ele>536.37524</ele><time>2026-04-10T23:33:59.000Z</time></trkpt>
        <trkpt lat="29.251095" lon="103.78464"><ele>536.01874</ele><time>2026-04-10T23:34:04.000Z</time></trkpt>
        <trkpt lat="29.251107" lon="103.784697"><ele>535.85504</ele><time>2026-04-10T23:34:09.000Z</time></trkpt>
        <trkpt lat="29.251113" lon="103.784751"><ele>534.7364</ele><time>2026-04-10T23:34:14.000Z</time></trkpt>
        <trkpt lat="29.251129" lon="103.784805"><ele>534.8275</ele><time>2026-04-10T23:34:19.000Z</time></trkpt>
        <trkpt lat="29.25114" lon="103.784861"><ele>534.2359</ele><time>2026-04-10T23:34:25.000Z</time></trkpt>
        <trkpt lat="29.251153" lon="103.784912"><ele>533.5131</ele><time>2026-04-10T23:34:30.000Z</time></trkpt>
        <trkpt lat="29.251165" lon="103.78497"><ele>533.49774</ele><time>2026-04-10T23:34:36.000Z</time></trkpt>
        <trkpt lat="29.251181" lon="103.785024"><ele>532.31494</ele><time>2026-04-10T23:34:42.000Z</time></trkpt>
        <trkpt lat="29.251201" lon="103.785077"><ele>532.2143</ele><time>2026-04-10T23:34:48.000Z</time></trkpt>
        <trkpt lat="29.251213" lon="103.785129"><ele>532.20337</ele><time>2026-04-10T23:34:53.000Z</time></trkpt>
        <trkpt lat="29.251231" lon="103.785185"><ele>531.7063</ele><time>2026-04-10T23:34:59.000Z</time></trkpt>
        <trkpt lat="29.25125" lon="103.78524"><ele>531.40375</ele><time>2026-04-10T23:35:05.000Z</time></trkpt>
        <trkpt lat="29.251262" lon="103.78529"><ele>531.1731</ele><time>2026-04-10T23:35:10.000Z</time></trkpt>
        <trkpt lat="29.251273" lon="103.785347"><ele>530.18365</ele><time>2026-04-10T23:35:16.000Z</time></trkpt>
        <trkpt lat="29.251281" lon="103.785404"><ele>529.64667</ele><time>2026-04-10T23:35:22.000Z</time></trkpt>
        <trkpt lat="29.251287" lon="103.785464"><ele>528.6768</ele><time>2026-04-10T23:35:28.000Z</time></trkpt>
        <trkpt lat="29.251286" lon="103.785515"><ele>527.9098</ele><time>2026-04-10T23:35:33.000Z</time></trkpt>
        <trkpt lat="29.25128" lon="103.785577"><ele>527.01654</ele><time>2026-04-10T23:35:39.000Z</time></trkpt>
        <trkpt lat="29.251269" lon="103.78563"><ele>526.20026</ele><time>2026-04-10T23:35:44.000Z</time></trkpt>
        <trkpt lat="29.25125" lon="103.785685"><ele>525.9927</ele><time>2026-04-10T23:35:50.000Z</time></trkpt>
        <trkpt lat="29.25123" lon="103.785737"><ele>525.63617</ele><time>2026-04-10T23:35:55.000Z</time></trkpt>
        <trkpt lat="29.251205" lon="103.785789"><ele>525.4329</ele><time>2026-04-10T23:36:01.000Z</time></trkpt>
        <trkpt lat="29.251177" lon="103.785842"><ele>524.23364</ele><time>2026-04-10T23:36:06.000Z</time></trkpt>
        <trkpt lat="29.251148" lon="103.785883"><ele>524.61383</ele><time>2026-04-10T23:36:11.000Z</time></trkpt>
        <trkpt lat="29.251116" lon="103.785927"><ele>525.0211</ele><time>2026-04-10T23:36:16.000Z</time></trkpt>
        <trkpt lat="29.251081" lon="103.785974"><ele>525.0431</ele><time>2026-04-10T23:36:22.000Z</time></trkpt>
        <trkpt lat="29.251044" lon="103.786016"><ele>524.8748</ele><time>2026-04-10T23:36:28.000Z</time></trkpt>
        <trkpt lat="29.251005" lon="103.786059"><ele>525.0183</ele><time>2026-04-10T23:36:34.000Z</time></trkpt>
        <trkpt lat="29.250966" lon="103.786096"><ele>524.6063</ele><time>2026-04-10T23:36:39.000Z</time></trkpt>
        <trkpt lat="29.250934" lon="103.786136"><ele>524.3578</ele><time>2026-04-10T23:36:46.000Z</time></trkpt>
        <trkpt lat="29.250897" lon="103.786167"><ele>524.3636</ele><time>2026-04-10T23:37:00.000Z</time></trkpt>
        <trkpt lat="29.250862" lon="103.786205"><ele>525.22565</ele><time>2026-04-10T23:37:05.000Z</time></trkpt>
        <trkpt lat="29.250819" lon="103.78624"><ele>524.2095</ele><time>2026-04-10T23:37:09.000Z</time></trkpt>
        <trkpt lat="29.250784" lon="103.786281"><ele>523.437</ele><time>2026-04-10T23:37:14.000Z</time></trkpt>
        <trkpt lat="29.25075" lon="103.786325"><ele>523.6053</ele><time>2026-04-10T23:37:19.000Z</time></trkpt>
        <trkpt lat="29.25072" lon="103.786373"><ele>522.8231</ele><time>2026-04-10T23:37:24.000Z</time></trkpt>
        <trkpt lat="29.250685" lon="103.78642"><ele>522.88196</ele><time>2026-04-10T23:37:29.000Z</time></trkpt>
        <trkpt lat="29.250658" lon="103.786461"><ele>522.55615</ele><time>2026-04-10T23:37:33.000Z</time></trkpt>
        <trkpt lat="29.250636" lon="103.786509"><ele>522.3208</ele><time>2026-04-10T23:37:37.000Z</time></trkpt>
        <trkpt lat="29.250616" lon="103.786568"><ele>521.918</ele><time>2026-04-10T23:37:42.000Z</time></trkpt>
        <trkpt lat="29.250606" lon="103.786621"><ele>521.769</ele><time>2026-04-10T23:37:46.000Z</time></trkpt>
        <trkpt lat="29.250605" lon="103.786682"><ele>520.34717</ele><time>2026-04-10T23:37:51.000Z</time></trkpt>
        <trkpt lat="29.250604" lon="103.786742"><ele>521.1549</ele><time>2026-04-10T23:37:56.000Z</time></trkpt>
        <trkpt lat="29.250611" lon="103.786804"><ele>521.02875</ele><time>2026-04-10T23:38:01.000Z</time></trkpt>
        <trkpt lat="29.250618" lon="103.786856"><ele>520.509</ele><time>2026-04-10T23:38:05.000Z</time></trkpt>
        <trkpt lat="29.250644" lon="103.7869"><ele>520.3275</ele><time>2026-04-10T23:38:09.000Z</time></trkpt>
        <trkpt lat="29.250667" lon="103.786947"><ele>520.7762</ele><time>2026-04-10T23:38:13.000Z</time></trkpt>
        <trkpt lat="29.250703" lon="103.786995"><ele>520.1589</ele><time>2026-04-10T23:38:18.000Z</time></trkpt>
        <trkpt lat="29.250741" lon="103.787041"><ele>520.26556</ele><time>2026-04-10T23:38:23.000Z</time></trkpt>
        <trkpt lat="29.250778" lon="103.787072"><ele>519.52106</ele><time>2026-04-10T23:38:27.000Z</time></trkpt>
        <trkpt lat="29.250817" lon="103.787105"><ele>519.78076</ele><time>2026-04-10T23:38:31.000Z</time></trkpt>
        <trkpt lat="29.250852" lon="103.787137"><ele>519.59753</ele><time>2026-04-10T23:38:35.000Z</time></trkpt>
        <trkpt lat="29.250882" lon="103.787178"><ele>520.06067</ele><time>2026-04-10T23:38:39.000Z</time></trkpt>
        <trkpt lat="29.250919" lon="103.787216"><ele>520.5668</ele><time>2026-04-10T23:38:43.000Z</time></trkpt>
        <trkpt lat="29.250955" lon="103.787254"><ele>519.7258</ele><time>2026-04-10T23:38:48.000Z</time></trkpt>
        <trkpt lat="29.251" lon="103.78729"><ele>519.47003</ele><time>2026-04-10T23:38:53.000Z</time></trkpt>
        <trkpt lat="29.251033" lon="103.787332"><ele>519.53644</ele><time>2026-04-10T23:38:57.000Z</time></trkpt>
        <trkpt lat="29.251078" lon="103.787354"><ele>519.0202</ele><time>2026-04-10T23:39:02.000Z</time></trkpt>
        <trkpt lat="29.251115" lon="103.787387"><ele>519.2087</ele><time>2026-04-10T23:39:06.000Z</time></trkpt>
        <trkpt lat="29.251147" lon="103.787425"><ele>519.0804</ele><time>2026-04-10T23:39:10.000Z</time></trkpt>
        <trkpt lat="29.251185" lon="103.787459"><ele>518.8671</ele><time>2026-04-10T23:39:15.000Z</time></trkpt>
        <trkpt lat="29.251221" lon="103.78749"><ele>519.04193</ele><time>2026-04-10T23:39:19.000Z</time></trkpt>
        <trkpt lat="29.251265" lon="103.787517"><ele>518.71674</ele><time>2026-04-10T23:39:23.000Z</time></trkpt>
        <trkpt lat="29.251304" lon="103.787553"><ele>518.46985</ele><time>2026-04-10T23:39:29.000Z</time></trkpt>
        <trkpt lat="29.25134" lon="103.787589"><ele>518.1844</ele><time>2026-04-10T23:39:33.000Z</time></trkpt>
        <trkpt lat="29.251384" lon="103.787629"><ele>517.69855</ele><time>2026-04-10T23:39:37.000Z</time></trkpt>
        <trkpt lat="29.251415" lon="103.787668"><ele>518.0857</ele><time>2026-04-10T23:39:42.000Z</time></trkpt>
        <trkpt lat="29.251453" lon="103.787711"><ele>518.155</ele><time>2026-04-10T23:39:46.000Z</time></trkpt>
        <trkpt lat="29.251469" lon="103.787764"><ele>517.9629</ele><time>2026-04-10T23:39:51.000Z</time></trkpt>
        <trkpt lat="29.251485" lon="103.787813"><ele>517.6698</ele><time>2026-04-10T23:39:56.000Z</time></trkpt>
        <trkpt lat="29.25152" lon="103.787861"><ele>516.43427</ele><time>2026-04-10T23:40:01.000Z</time></trkpt>
        <trkpt lat="29.25156" lon="103.78789"><ele>516.1358</ele><time>2026-04-10T23:40:05.000Z</time></trkpt>
        <trkpt lat="29.251597" lon="103.787922"><ele>516.11914</ele><time>2026-04-10T23:40:09.000Z</time></trkpt>
        <trkpt lat="29.251619" lon="103.787975"><ele>515.956</ele><time>2026-04-10T23:40:14.000Z</time></trkpt>
        <trkpt lat="29.251647" lon="103.788023"><ele>515.4281</ele><time>2026-04-10T23:40:19.000Z</time></trkpt>
        <trkpt lat="29.251672" lon="103.788076"><ele>512.472</ele><time>2026-04-10T23:40:24.000Z</time></trkpt>
        <trkpt lat="29.251703" lon="103.788123"><ele>510.96295</ele><time>2026-04-10T23:40:29.000Z</time></trkpt>
        <trkpt lat="29.251721" lon="103.788176"><ele>510.71756</ele><time>2026-04-10T23:40:33.000Z</time></trkpt>
        <trkpt lat="29.251748" lon="103.788222"><ele>511.05887</ele><time>2026-04-10T23:40:37.000Z</time></trkpt>
        <trkpt lat="29.251759" lon="103.788274"><ele>511.68518</ele><time>2026-04-10T23:40:41.000Z</time></trkpt>
        <trkpt lat="29.251777" lon="103.788325"><ele>511.39697</ele><time>2026-04-10T23:40:45.000Z</time></trkpt>
      </trkseg>
  </trk>
</gpx>